Observation data for Van Horn on 03/24/2019      Previous  Date  Next       Current Mesonet Observations  Soil Data  Daily Summary Page  Observations in Plain Language
KVA1 240500Z 23003KT 15/M08 A3009 RMK A01 T01451077  RH  021%=      5-min Rain = 0
KVA1 240501Z 25003KT 15/M08 A3009 RMK A01 T01461077  RH  021%=      5-min Rain = 0
KVA1 240502Z 25003KT 15/M08 A3009 RMK A01 T01461077  RH  021%=      5-min Rain = 0
KVA1 240503Z 25004KT 15/M08 A3009 RMK A01 T01451078  RH  021%=      5-min Rain = 0
KVA1 240504Z 26004KT 14/M08 A3009 RMK A01 T01441078  RH  021%=      5-min Rain = 0
KVA1 240505Z 27004KT 14/M08 A3009 RMK A01 T01441078  RH  021%=      5-min Rain = 0
KVA1 240506Z 26003KT 14/M08 A3009 RMK A01 T01441078  RH  021%=      5-min Rain = 0
KVA1 240507Z 25003KT 14/M08 A3009 RMK A01 T01431079  RH  021%=      5-min Rain = 0
KVA1 240508Z 24003KT 14/M08 A3009 RMK A01 T01411078  RH  021%=      5-min Rain = 0
KVA1 240509Z 23003KT 14/M08 A3009 RMK A01 T01411078  RH  021%=      5-min Rain = 0
KVA1 240510Z 23002KT 14/M08 A3009 RMK A01 T01411078  RH  021%=      5-min Rain = 0
KVA1 240511Z 22001KT 14/M08 A3009 RMK A01 T01411078  RH  021%=      5-min Rain = 0
KVA1 240512Z 21002KT 14/M08 A3009 RMK A01 T01411078  RH  021%=      5-min Rain = 0
KVA1 240513Z 19003KT 14/M08 A3009 RMK A01 T01401079  RH  021%=      5-min Rain = 0
KVA1 240514Z 20003KT 14/M08 A3009 RMK A01 T01381080  RH  021%=      5-min Rain = 0
KVA1 240515Z 20003KT 14/M08 A3009 RMK A01 T01351081  RH  022%=      5-min Rain = 0
KVA1 240516Z 20004KT 13/M08 A3009 RMK A01 T01331082  RH  022%=      5-min Rain = 0
KVA1 240517Z 20004KT 13/M08 A3009 RMK A01 T01331082  RH  022%=      5-min Rain = 0
KVA1 240518Z 19004KT 13/M08 A3009 RMK A01 T01321083  RH  022%=      5-min Rain = 0
KVA1 240519Z 20005KT 13/M08 A3009 RMK A01 T01311083  RH  022%=      5-min Rain = 0
KVA1 240520Z 20006KT 13/M08 A3009 RMK A01 T01301084  RH  022%=      5-min Rain = 0
KVA1 240521Z 20006KT 13/M08 A3009 RMK A01 T01301083  RH  022%=      5-min Rain = 0
KVA1 240522Z 20007KT 13/M08 A3009 RMK A01 T01301084  RH  022%=      5-min Rain = 0
KVA1 240523Z 20006KT 13/M08 A3009 RMK A01 T01281084  RH  022%=      5-min Rain = 0
KVA1 240524Z 21007KT 13/M08 A3009 RMK A01 T01281084  RH  022%=      5-min Rain = 0
KVA1 240525Z 21007KT 13/M09 A3009 RMK A01 T01261085  RH  022%=      5-min Rain = 0
KVA1 240526Z 20008KT 12/M09 A3009 RMK A01 T01241085  RH  022%=      5-min Rain = 0
KVA1 240527Z 21007KT 12/M09 A3009 RMK A01 T01221086  RH  023%=      5-min Rain = 0
KVA1 240528Z 21007KT 12/M09 A3009 RMK A01 T01211085  RH  023%=      5-min Rain = 0
KVA1 240529Z 21006KT 12/M09 A3009 RMK A01 T01201085  RH  023%=      5-min Rain = 0
KVA1 240530Z 22007KT 12/M09 A3009 RMK A01 T01191086  RH  023%=      5-min Rain = 0
KVA1 240531Z 21007KT 12/M09 A3009 RMK A01 T01171086  RH  023%=      5-min Rain = 0
KVA1 240532Z 21007KT 12/M09 A3009 RMK A01 T01161086  RH  024%=      5-min Rain = 0
KVA1 240533Z 21007KT 12/M09 A3009 RMK A01 T01161085  RH  024%=      5-min Rain = 0
KVA1 240534Z 22007KT 12/M08 A3009 RMK A01 T01181084  RH  023%=      5-min Rain = 0
KVA1 240535Z 22008KT 12/M08 A3009 RMK A01 T01191084  RH  023%=      5-min Rain = 0
KVA1 240536Z 22007KT 12/M08 A3009 RMK A01 T01211083  RH  023%=      5-min Rain = 0
KVA1 240537Z 22007KT 12/M08 A301 RMK A01 T01221083  RH  023%=      5-min Rain = 0
KVA1 240538Z 22006KT 12/M08 A301 RMK A01 T01231083  RH  023%=      5-min Rain = 0
KVA1 240539Z 22006KT 12/M08 A301 RMK A01 T01241083  RH  023%=      5-min Rain = 0
KVA1 240540Z 21005KT 13/M08 A301 RMK A01 T01261082  RH  023%=      5-min Rain = 0
KVA1 240541Z 21005KT 13/M08 A301 RMK A01 T01261082  RH  023%=      5-min Rain = 0
KVA1 240542Z 21005KT 13/M08 A301 RMK A01 T01261083  RH  023%=      5-min Rain = 0
KVA1 240543Z 21005KT 13/M08 A301 RMK A01 T01251083  RH  023%=      5-min Rain = 0
KVA1 240544Z 21005KT 12/M08 A301 RMK A01 T01231083  RH  023%=      5-min Rain = 0
KVA1 240545Z 22005KT 12/M08 A301 RMK A01 T01211084  RH  023%=      5-min Rain = 0
KVA1 240546Z 22005KT 12/M08 A301 RMK A01 T01191084  RH  023%=      5-min Rain = 0
KVA1 240547Z 21005KT 12/M08 A301 RMK A01 T01171084  RH  024%=      5-min Rain = 0
KVA1 240548Z 22005KT 12/M08 A301 RMK A01 T01151083  RH  024%=      5-min Rain = 0
KVA1 240549Z 23005KT 11/M08 A301 RMK A01 T01141082  RH  024%=      5-min Rain = 0
KVA1 240550Z 22005KT 11/M08 A301 RMK A01 T01131082  RH  025%=      5-min Rain = 0
KVA1 240551Z 22006KT 11/M08 A301 RMK A01 T01121082  RH  025%=      5-min Rain = 0
KVA1 240552Z 22006KT 11/M08 A301 RMK A01 T01111082  RH  025%=      5-min Rain = 0
KVA1 240553Z 23006KT 11/M08 A301 RMK A01 T01101082  RH  025%=      5-min Rain = 0
KVA1 240554Z 23006KT 11/M08 A301 RMK A01 T01091082  RH  025%=      5-min Rain = 0
KVA1 240555Z 22006KT 11/M08 A301 RMK A01 T01091082  RH  025%=      5-min Rain = 0
KVA1 240556Z 23005KT 11/M08 A301 RMK A01 T01111081  RH  025%=      5-min Rain = 0
KVA1 240557Z 23006KT 11/M08 A301 RMK A01 T01141080  RH  025%=      5-min Rain = 0
KVA1 240558Z 23007KT 12/M08 A3009 RMK A01 T01151081  RH  025%=      5-min Rain = 0
KVA1 240559Z 24008KT 12/M08 A3009 RMK A01 T01161081  RH  024%=      5-min Rain = 0
KVA1 240600Z 24007KT 12/M08 A3009 RMK A01 T01161081  RH  024%=      5-min Rain = 0
KVA1 240601Z 23007KT 12/M08 A3009 RMK A01 T01161081  RH  024%=      5-min Rain = 0
KVA1 240602Z 24006KT 12/M08 A3009 RMK A01 T01161082  RH  024%=      5-min Rain = 0
KVA1 240603Z 24005KT 12/M08 A3009 RMK A01 T01171082  RH  024%=      5-min Rain = 0
KVA1 240604Z 24007KT 12/M08 A3009 RMK A01 T01151083  RH  024%=      5-min Rain = 0
KVA1 240605Z 23007KT 12/M08 A3009 RMK A01 T01151082  RH  024%=      5-min Rain = 0
KVA1 240606Z 23008KT 11/M08 A3009 RMK A01 T01141083  RH  024%=      5-min Rain = 0
KVA1 240607Z 23008KT 11/M08 A3009 RMK A01 T01141082  RH  024%=      5-min Rain = 0
KVA1 240608Z 23007KT 12/M08 A3009 RMK A01 T01171081  RH  024%=      5-min Rain = 0
KVA1 240609Z 23008KT 12/M08 A3009 RMK A01 T01181082  RH  024%=      5-min Rain = 0
KVA1 240610Z 23006KT 12/M08 A3009 RMK A01 T01181081  RH  024%=      5-min Rain = 0
KVA1 240611Z 23006KT 12/M08 A3009 RMK A01 T01191081  RH  024%=      5-min Rain = 0
KVA1 240612Z 23006KT 12/M08 A3009 RMK A01 T01191082  RH  024%=      5-min Rain = 0
KVA1 240613Z 23007KT 12/M08 A3009 RMK A01 T01181082  RH  024%=      5-min Rain = 0
KVA1 240614Z 23007KT 12/M08 A3009 RMK A01 T01181083  RH  024%=      5-min Rain = 0
KVA1 240615Z 23007KT 12/M08 A3009 RMK A01 T01191082  RH  024%=      5-min Rain = 0
KVA1 240616Z 23007KT 12/M08 A3009 RMK A01 T01211081  RH  024%=      5-min Rain = 0
KVA1 240617Z 22006KT 12/M08 A3009 RMK A01 T01211081  RH  023%=      5-min Rain = 0
KVA1 240618Z 22006KT 12/M08 A3009 RMK A01 T01211082  RH  023%=      5-min Rain = 0
KVA1 240619Z 22007KT 12/M08 A3009 RMK A01 T01211082  RH  024%=      5-min Rain = 0
KVA1 240620Z 22006KT 12/M08 A3009 RMK A01 T01201082  RH  024%=      5-min Rain = 0
KVA1 240621Z 22006KT 12/M08 A3009 RMK A01 T01181082  RH  024%=      5-min Rain = 0
KVA1 240622Z 21006KT 12/M08 A3009 RMK A01 T01171082  RH  024%=      5-min Rain = 0
KVA1 240623Z 21006KT 12/M08 A3009 RMK A01 T01151083  RH  024%=      5-min Rain = 0
KVA1 240624Z 21006KT 11/M08 A3009 RMK A01 T01131083  RH  024%=      5-min Rain = 0
KVA1 240625Z 21006KT 11/M08 A3009 RMK A01 T01121083  RH  025%=      5-min Rain = 0
KVA1 240626Z 21006KT 11/M08 A3009 RMK A01 T01111083  RH  025%=      5-min Rain = 0
KVA1 240627Z 21006KT 11/M08 A3009 RMK A01 T01111083  RH  025%=      5-min Rain = 0
KVA1 240628Z 21006KT 11/M08 A3009 RMK A01 T01101083  RH  025%=      5-min Rain = 0
KVA1 240629Z 21006KT 11/M08 A3009 RMK A01 T01101083  RH  025%=      5-min Rain = 0
KVA1 240630Z 21006KT 11/M08 A3009 RMK A01 T01091084  RH  025%=      5-min Rain = 0
KVA1 240631Z 21006KT 11/M08 A3009 RMK A01 T01071084  RH  025%=      5-min Rain = 0
KVA1 240632Z 21006KT 11/M08 A3009 RMK A01 T01061084  RH  025%=      5-min Rain = 0
KVA1 240633Z 21005KT 11/M08 A3009 RMK A01 T01061084  RH  026%=      5-min Rain = 0
KVA1 240634Z 21005KT 11/M08 A3009 RMK A01 T01061084  RH  026%=      5-min Rain = 0
KVA1 240635Z 21006KT 11/M08 A3009 RMK A01 T01061083  RH  026%=      5-min Rain = 0
KVA1 240636Z 21006KT 11/M08 A3009 RMK A01 T01061083  RH  026%=      5-min Rain = 0
KVA1 240637Z 21006KT 11/M08 A3009 RMK A01 T01071083  RH  026%=      5-min Rain = 0
KVA1 240638Z 21006KT 11/M08 A3009 RMK A01 T01071083  RH  026%=      5-min Rain = 0
KVA1 240639Z 21006KT 11/M08 A3009 RMK A01 T01071083  RH  026%=      5-min Rain = 0
KVA1 240640Z 21006KT 11/M08 A3009 RMK A01 T01061083  RH  026%=      5-min Rain = 0
KVA1 240641Z 22006KT 11/M08 A3009 RMK A01 T01051083  RH  026%=      5-min Rain = 0
KVA1 240642Z 22007KT 10/M08 A3009 RMK A01 T01041083  RH  026%=      5-min Rain = 0
KVA1 240643Z 22007KT 10/M08 A3009 RMK A01 T01041082  RH  026%=      5-min Rain = 0
KVA1 240644Z 22007KT 10/M08 A3009 RMK A01 T01031083  RH  026%=      5-min Rain = 0
KVA1 240645Z 21007KT 10/M08 A3009 RMK A01 T01031082  RH  026%=      5-min Rain = 0
KVA1 240646Z 21007KT 10/M08 A3009 RMK A01 T01031082  RH  026%=      5-min Rain = 0
KVA1 240647Z 22008KT 10/M08 A3009 RMK A01 T01031081  RH  026%=      5-min Rain = 0
KVA1 240648Z 22008KT 11/M08 A3009 RMK A01 T01051081  RH  026%=      5-min Rain = 0
KVA1 240649Z 21008KT 11/M08 A3009 RMK A01 T01051081  RH  026%=      5-min Rain = 0
KVA1 240650Z 21008KT 11/M08 A3009 RMK A01 T01071080  RH  026%=      5-min Rain = 0
KVA1 240651Z 21008KT 11/M08 A3009 RMK A01 T01081080  RH  026%=      5-min Rain = 0
KVA1 240652Z 21009KT 11/M08 A3009 RMK A01 T01081081  RH  026%=      5-min Rain = 0
KVA1 240653Z 21007KT 11/M08 A3009 RMK A01 T01081081  RH  026%=      5-min Rain = 0
KVA1 240654Z 21006KT 11/M08 A3009 RMK A01 T01081082  RH  026%=      5-min Rain = 0
KVA1 240655Z 21008KT 11/M08 A3009 RMK A01 T01061083  RH  026%=      5-min Rain = 0
KVA1 240656Z 21009KT 11/M08 A3009 RMK A01 T01061081  RH  026%=      5-min Rain = 0
KVA1 240657Z 21009KT 11/M08 A3009 RMK A01 T01131077  RH  026%=      5-min Rain = 0
KVA1 240658Z 21009KT 12/M08 A3009 RMK A01 T01171077  RH  025%=      5-min Rain = 0
KVA1 240659Z 21010KT 12/M08 A3009 RMK A01 T01211078  RH  024%=      5-min Rain = 0
KVA1 240700Z 21010KT 12/M08 A3009 RMK A01 T01231079  RH  024%=      5-min Rain = 0
KVA1 240701Z 21009KT 12/M08 A3009 RMK A01 T01231080  RH  023%=      5-min Rain = 0
KVA1 240702Z 21009KT 12/M08 A3009 RMK A01 T01221080  RH  024%=      5-min Rain = 0
KVA1 240703Z 21009KT 12/M08 A3009 RMK A01 T01201080  RH  024%=      5-min Rain = 0
KVA1 240704Z 21009KT 12/M08 A3009 RMK A01 T01181079  RH  024%=      5-min Rain = 0
KVA1 240705Z 21009KT 12/M08 A3009 RMK A01 T01171078  RH  025%=      5-min Rain = 0
KVA1 240706Z 21009KT 12/M08 A3009 RMK A01 T01161078  RH  025%=      5-min Rain = 0
KVA1 240707Z 21008KT 12/M08 A3009 RMK A01 T01151077  RH  025%=      5-min Rain = 0
KVA1 240708Z 22008KT 12/M08 A301 RMK A01 T01151077  RH  025%=      5-min Rain = 0
KVA1 240709Z 21008KT 11/M08 A301 RMK A01 T01141077  RH  025%=      5-min Rain = 0
KVA1 240710Z 21008KT 11/M08 A3009 RMK A01 T01141076  RH  026%=      5-min Rain = 0
KVA1 240711Z 21008KT 12/M08 A301 RMK A01 T01151076  RH  026%=      5-min Rain = 0
KVA1 240712Z 22008KT 11/M08 A301 RMK A01 T01141076  RH  026%=      5-min Rain = 0
KVA1 240713Z 22008KT 11/M08 A301 RMK A01 T01141076  RH  026%=      5-min Rain = 0
KVA1 240714Z 21008KT 11/M08 A301 RMK A01 T01141076  RH  026%=      5-min Rain = 0
KVA1 240715Z 22008KT 11/M08 A301 RMK A01 T01141076  RH  026%=      5-min Rain = 0
KVA1 240716Z 21008KT 11/M08 A301 RMK A01 T01141076  RH  026%=      5-min Rain = 0
KVA1 240717Z 21008KT 11/M08 A301 RMK A01 T01141076  RH  026%=      5-min Rain = 0
KVA1 240718Z 21007KT 11/M08 A301 RMK A01 T01141076  RH  026%=      5-min Rain = 0
KVA1 240719Z 21007KT 11/M08 A301 RMK A01 T01131076  RH  026%=      5-min Rain = 0
KVA1 240720Z 21008KT 11/M08 A301 RMK A01 T01131075  RH  026%=      5-min Rain = 0
KVA1 240721Z 21008KT 11/M08 A301 RMK A01 T01121075  RH  026%=      5-min Rain = 0
KVA1 240722Z 21007KT 11/M08 A301 RMK A01 T01121075  RH  026%=      5-min Rain = 0
KVA1 240723Z 22007KT 11/M07 A301 RMK A01 T01121074  RH  026%=      5-min Rain = 0
KVA1 240724Z 22007KT 11/M07 A301 RMK A01 T01121074  RH  026%=      5-min Rain = 0
KVA1 240725Z 22007KT 11/M07 A301 RMK A01 T01121074  RH  026%=      5-min Rain = 0
KVA1 240726Z 23008KT 11/M07 A301 RMK A01 T01121074  RH  026%=      5-min Rain = 0
KVA1 240727Z 22008KT 11/M07 A301 RMK A01 T01121073  RH  027%=      5-min Rain = 0
KVA1 240728Z 22008KT 11/M07 A301 RMK A01 T01121073  RH  027%=      5-min Rain = 0
KVA1 240729Z 22008KT 11/M07 A301 RMK A01 T01121073  RH  027%=      5-min Rain = 0
KVA1 240730Z 23009KT 11/M07 A301 RMK A01 T01121073  RH  027%=      5-min Rain = 0
KVA1 240731Z 22008KT 11/M07 A301 RMK A01 T01121073  RH  027%=      5-min Rain = 0
KVA1 240732Z 22008KT 11/M07 A301 RMK A01 T01111073  RH  027%=      5-min Rain = 0
KVA1 240733Z 22009KT 11/M07 A301 RMK A01 T01111072  RH  027%=      5-min Rain = 0
KVA1 240734Z 22008KT 11/M07 A301 RMK A01 T01121072  RH  027%=      5-min Rain = 0
KVA1 240735Z 23008KT 11/M07 A301 RMK A01 T01121072  RH  027%=      5-min Rain = 0
KVA1 240736Z 24008KT 11/M07 A301 RMK A01 T01121072  RH  027%=      5-min Rain = 0
KVA1 240737Z 22009KT 11/M07 A301 RMK A01 T01121072  RH  027%=      5-min Rain = 0
KVA1 240738Z 23009KT 11/M07 A301 RMK A01 T01121071  RH  027%=      5-min Rain = 0
KVA1 240739Z 22007KT 11/M07 A301 RMK A01 T01131070  RH  027%=      5-min Rain = 0
KVA1 240740Z 23008KT 11/M07 A301 RMK A01 T01141070  RH  027%=      5-min Rain = 0
KVA1 240741Z 23007KT 11/M07 A301 RMK A01 T01141070  RH  027%=      5-min Rain = 0
KVA1 240742Z 23006KT 11/M07 A301 RMK A01 T01131071  RH  027%=      5-min Rain = 0
KVA1 240743Z 23008KT 11/M07 A301 RMK A01 T01121071  RH  027%=      5-min Rain = 0
KVA1 240744Z 23007KT 11/M07 A301 RMK A01 T01121070  RH  027%=      5-min Rain = 0
KVA1 240745Z 22008KT 11/M07 A301 RMK A01 T01131070  RH  027%=      5-min Rain = 0
KVA1 240746Z 22008KT 12/M07 A301 RMK A01 T01151069  RH  027%=      5-min Rain = 0
KVA1 240747Z 23008KT 12/M07 A301 RMK A01 T01151070  RH  027%=      5-min Rain = 0
KVA1 240748Z 22007KT 12/M07 A301 RMK A01 T01151070  RH  027%=      5-min Rain = 0
KVA1 240749Z 23008KT 12/M07 A301 RMK A01 T01151070  RH  027%=      5-min Rain = 0
KVA1 240750Z 23008KT 11/M07 A301 RMK A01 T01141071  RH  027%=      5-min Rain = 0
KVA1 240751Z 22008KT 11/M07 A301 RMK A01 T01141071  RH  027%=      5-min Rain = 0
KVA1 240752Z 23009KT 12/M07 A301 RMK A01 T01151070  RH  027%=      5-min Rain = 0
KVA1 240753Z 23007KT 12/M07 A301 RMK A01 T01161070  RH  027%=      5-min Rain = 0
KVA1 240754Z 23008KT 12/M07 A301 RMK A01 T01161070  RH  027%=      5-min Rain = 0
KVA1 240755Z 23007KT 12/M07 A301 RMK A01 T01161070  RH  027%=      5-min Rain = 0
KVA1 240756Z 23008KT 12/M07 A301 RMK A01 T01151070  RH  027%=      5-min Rain = 0
KVA1 240757Z 23007KT 11/M07 A301 RMK A01 T01141070  RH  027%=      5-min Rain = 0
KVA1 240758Z 24007KT 11/M07 A301 RMK A01 T01131070  RH  027%=      5-min Rain = 0
KVA1 240759Z 24007KT 11/M07 A301 RMK A01 T01121070  RH  027%=      5-min Rain = 0
KVA1 240800Z 24007KT 11/M07 A301 RMK A01 T01111070  RH  027%=      5-min Rain = 0
KVA1 240801Z 24007KT 11/M07 A301 RMK A01 T01111070  RH  027%=      5-min Rain = 0
KVA1 240802Z 24007KT 11/M07 A301 RMK A01 T01101070  RH  028%=      5-min Rain = 0
KVA1 240803Z 23007KT 11/M07 A301 RMK A01 T01101070  RH  028%=      5-min Rain = 0
KVA1 240804Z 24008KT 11/M07 A301 RMK A01 T01091070  RH  028%=      5-min Rain = 0
KVA1 240805Z 24009KT 11/M07 A301 RMK A01 T01081069  RH  028%=      5-min Rain = 0
KVA1 240806Z 24009KT 11/M07 A301 RMK A01 T01071069  RH  028%=      5-min Rain = 0
KVA1 240807Z 24008KT 11/M07 A301 RMK A01 T01061069  RH  028%=      5-min Rain = 0
KVA1 240808Z 24008KT 11/M07 A301 RMK A01 T01051069  RH  029%=      5-min Rain = 0
KVA1 240809Z 24009KT 11/M07 A301 RMK A01 T01051069  RH  029%=      5-min Rain = 0
KVA1 240810Z 24009KT 11/M07 A301 RMK A01 T01051069  RH  029%=      5-min Rain = 0
KVA1 240811Z 24009KT 10/M07 A301 RMK A01 T01041069  RH  029%=      5-min Rain = 0
KVA1 240812Z 24008KT 11/M07 A301 RMK A01 T01051069  RH  029%=      5-min Rain = 0
KVA1 240813Z 24008KT 11/M07 A301 RMK A01 T01051069  RH  029%=      5-min Rain = 0
KVA1 240814Z 24008KT 11/M07 A301 RMK A01 T01051069  RH  029%=      5-min Rain = 0
KVA1 240815Z 24008KT 11/M07 A301 RMK A01 T01051069  RH  029%=      5-min Rain = 0
KVA1 240816Z 24008KT 11/M07 A301 RMK A01 T01051069  RH  029%=      5-min Rain = 0
KVA1 240817Z 24008KT 11/M07 A301 RMK A01 T01061069  RH  029%=      5-min Rain = 0
KVA1 240818Z 24008KT 11/M07 A301 RMK A01 T01071069  RH  028%=      5-min Rain = 0
KVA1 240819Z 24008KT 11/M07 A301 RMK A01 T01061070  RH  028%=      5-min Rain = 0
KVA1 240820Z 24008KT 11/M07 A301 RMK A01 T01071070  RH  028%=      5-min Rain = 0
KVA1 240821Z 24008KT 11/M07 A301 RMK A01 T01081071  RH  028%=      5-min Rain = 0
KVA1 240822Z 24008KT 11/M07 A301 RMK A01 T01091071  RH  028%=      5-min Rain = 0
KVA1 240823Z 24008KT 11/M07 A301 RMK A01 T01101072  RH  027%=      5-min Rain = 0
KVA1 240824Z 24008KT 11/M07 A301 RMK A01 T01111071  RH  027%=      5-min Rain = 0
KVA1 240825Z 24009KT 11/M07 A301 RMK A01 T01111072  RH  027%=      5-min Rain = 0
KVA1 240826Z 24008KT 11/M07 A301 RMK A01 T01121072  RH  027%=      5-min Rain = 0
KVA1 240827Z 24008KT 11/M07 A301 RMK A01 T01121073  RH  027%=      5-min Rain = 0
KVA1 240828Z 24008KT 11/M07 A301 RMK A01 T01121073  RH  027%=      5-min Rain = 0
KVA1 240829Z 24008KT 11/M07 A301 RMK A01 T01131073  RH  027%=      5-min Rain = 0
KVA1 240830Z 24008KT 11/M07 A301 RMK A01 T01131073  RH  026%=      5-min Rain = 0
KVA1 240831Z 24008KT 11/M07 A301 RMK A01 T01131073  RH  026%=      5-min Rain = 0
KVA1 240832Z 24008KT 11/M07 A301 RMK A01 T01131073  RH  026%=      5-min Rain = 0
KVA1 240833Z 24008KT 11/M07 A301 RMK A01 T01131073  RH  026%=      5-min Rain = 0
KVA1 240834Z 24009KT 11/M07 A301 RMK A01 T01131073  RH  026%=      5-min Rain = 0
KVA1 240835Z 24009KT 11/M07 A301 RMK A01 T01131073  RH  026%=      5-min Rain = 0
KVA1 240836Z 24007KT 11/M07 A301 RMK A01 T01131073  RH  026%=      5-min Rain = 0
KVA1 240837Z 24008KT 11/M07 A301 RMK A01 T01131073  RH  026%=      5-min Rain = 0
KVA1 240838Z 25009KT 11/M07 A301 RMK A01 T01121073  RH  027%=      5-min Rain = 0
KVA1 240839Z 24008KT 11/M07 A301 RMK A01 T01121072  RH  027%=      5-min Rain = 0
KVA1 240840Z 24008KT 11/M07 A301 RMK A01 T01111072  RH  027%=      5-min Rain = 0
KVA1 240841Z 25007KT 11/M07 A301 RMK A01 T01111072  RH  027%=      5-min Rain = 0
KVA1 240842Z 24008KT 11/M07 A301 RMK A01 T01101072  RH  027%=      5-min Rain = 0
KVA1 240843Z 24008KT 11/M07 A301 RMK A01 T01091072  RH  028%=      5-min Rain = 0
KVA1 240844Z 24008KT 11/M07 A301 RMK A01 T01081071  RH  028%=      5-min Rain = 0
KVA1 240845Z 24008KT 11/M07 A301 RMK A01 T01081071  RH  028%=      5-min Rain = 0
KVA1 240846Z 24008KT 11/M07 A301 RMK A01 T01081070  RH  028%=      5-min Rain = 0
KVA1 240847Z 24007KT 11/M07 A301 RMK A01 T01081070  RH  028%=      5-min Rain = 0
KVA1 240848Z 24008KT 11/M07 A301 RMK A01 T01081070  RH  028%=      5-min Rain = 0
KVA1 240849Z 23008KT 11/M07 A301 RMK A01 T01081070  RH  028%=      5-min Rain = 0
KVA1 240850Z 23008KT 11/M07 A301 RMK A01 T01081070  RH  028%=      5-min Rain = 0
KVA1 240851Z 23008KT 11/M07 A301 RMK A01 T01091070  RH  028%=      5-min Rain = 0
KVA1 240852Z 23008KT 11/M07 A301 RMK A01 T01101070  RH  028%=      5-min Rain = 0
KVA1 240853Z 23008KT 11/M07 A301 RMK A01 T01111071  RH  027%=      5-min Rain = 0
KVA1 240854Z 23008KT 11/M07 A301 RMK A01 T01111071  RH  027%=      5-min Rain = 0
KVA1 240855Z 24007KT 11/M07 A301 RMK A01 T01121070  RH  027%=      5-min Rain = 0
KVA1 240856Z 24008KT 11/M07 A301 RMK A01 T01111070  RH  027%=      5-min Rain = 0
KVA1 240857Z 24007KT 11/M07 A301 RMK A01 T01101069  RH  028%=      5-min Rain = 0
KVA1 240858Z 25008KT 11/M07 A301 RMK A01 T01091069  RH  028%=      5-min Rain = 0
KVA1 240859Z 25007KT 11/M07 A301 RMK A01 T01081068  RH  028%=      5-min Rain = 0
KVA1 240900Z 24007KT 11/M07 A301 RMK A01 T01051068  RH  029%=      5-min Rain = 0
KVA1 240901Z 24007KT 10/M07 A301 RMK A01 T01041067  RH  030%=      5-min Rain = 0
KVA1 240902Z 24006KT 10/M07 A301 RMK A01 T01021066  RH  030%=      5-min Rain = 0
KVA1 240903Z 25007KT 10/M07 A301 RMK A01 T01011066  RH  030%=      5-min Rain = 0
KVA1 240904Z 25007KT 10/M07 A301 RMK A01 T01001066  RH  030%=      5-min Rain = 0
KVA1 240905Z 25006KT 10/M07 A301 RMK A01 T00991066  RH  031%=      5-min Rain = 0
KVA1 240906Z 25007KT 10/M07 A301 RMK A01 T00981065  RH  031%=      5-min Rain = 0
KVA1 240907Z 25006KT 10/M07 A301 RMK A01 T00971065  RH  031%=      5-min Rain = 0
KVA1 240908Z 24007KT 10/M07 A301 RMK A01 T00961065  RH  031%=      5-min Rain = 0
KVA1 240909Z 24007KT 10/M07 A301 RMK A01 T00961065  RH  032%=      5-min Rain = 0
KVA1 240910Z 25007KT 10/M07 A301 RMK A01 T00951065  RH  032%=      5-min Rain = 0
KVA1 240911Z 24005KT 10/M06 A301 RMK A01 T00961064  RH  032%=      5-min Rain = 0
KVA1 240912Z 24004KT 10/M06 A301 RMK A01 T00971064  RH  032%=      5-min Rain = 0
KVA1 240913Z 25007KT 10/M06 A301 RMK A01 T00961064  RH  032%=      5-min Rain = 0
KVA1 240914Z 25007KT 10/M06 A301 RMK A01 T00961064  RH  032%=      5-min Rain = 0
KVA1 240915Z 25006KT 10/M06 A301 RMK A01 T00951064  RH  032%=      5-min Rain = 0
KVA1 240916Z 24004KT 09/M07 A301 RMK A01 T00941065  RH  032%=      5-min Rain = 0
KVA1 240917Z 24004KT 09/M07 A301 RMK A01 T00931065  RH  032%=      5-min Rain = 0
KVA1 240918Z 25005KT 09/M07 A301 RMK A01 T00931065  RH  032%=      5-min Rain = 0
KVA1 240919Z 25006KT 09/M07 A301 RMK A01 T00921066  RH  032%=      5-min Rain = 0
KVA1 240920Z 24007KT 09/M07 A301 RMK A01 T00911065  RH  032%=      5-min Rain = 0
KVA1 240921Z 24006KT 09/M07 A301 RMK A01 T00901066  RH  033%=      5-min Rain = 0
KVA1 240922Z 25006KT 09/M07 A301 RMK A01 T00891066  RH  033%=      5-min Rain = 0
KVA1 240923Z 25006KT 09/M07 A301 RMK A01 T00901067  RH  032%=      5-min Rain = 0
KVA1 240924Z 22005KT 09/M07 A301 RMK A01 T00911067  RH  032%=      5-min Rain = 0
KVA1 240925Z 25005KT 09/M07 A3009 RMK A01 T00911067  RH  032%=      5-min Rain = 0
KVA1 240926Z 25006KT 09/M07 A3009 RMK A01 T00901068  RH  032%=      5-min Rain = 0
KVA1 240927Z 24007KT 09/M07 A301 RMK A01 T00891068  RH  032%=      5-min Rain = 0
KVA1 240928Z 24003KT 09/M07 A3009 RMK A01 T00881069  RH  032%=      5-min Rain = 0
KVA1 240929Z 23003KT 09/M07 A3009 RMK A01 T00881069  RH  032%=      5-min Rain = 0
KVA1 240930Z 23004KT 09/M07 A3009 RMK A01 T00871068  RH  033%=      5-min Rain = 0
KVA1 240931Z 21004KT 09/M07 A3009 RMK A01 T00851069  RH  033%=      5-min Rain = 0
KVA1 240932Z 19004KT 08/M07 A3009 RMK A01 T00841069  RH  033%=      5-min Rain = 0
KVA1 240933Z 20005KT 08/M07 A3009 RMK A01 T00831069  RH  033%=      5-min Rain = 0
KVA1 240934Z 20006KT 08/M07 A3009 RMK A01 T00821068  RH  034%=      5-min Rain = 0
KVA1 240935Z 19006KT 08/M07 A3009 RMK A01 T00821066  RH  034%=      5-min Rain = 0
KVA1 240936Z 19006KT 08/M07 A3009 RMK A01 T00831065  RH  034%=      5-min Rain = 0
KVA1 240937Z 19007KT 08/M06 A3009 RMK A01 T00831064  RH  035%=      5-min Rain = 0
KVA1 240938Z 20007KT 08/M06 A301 RMK A01 T00831063  RH  035%=      5-min Rain = 0
KVA1 240939Z 18008KT 08/M06 A3009 RMK A01 T00831063  RH  035%=      5-min Rain = 0
KVA1 240940Z 18008KT 08/M06 A3009 RMK A01 T00841063  RH  035%=      5-min Rain = 0
KVA1 240941Z 19007KT 08/M06 A3009 RMK A01 T00841063  RH  035%=      5-min Rain = 0
KVA1 240942Z 19006KT 08/M06 A3009 RMK A01 T00841064  RH  035%=      5-min Rain = 0
KVA1 240943Z 20006KT 08/M06 A3009 RMK A01 T00841064  RH  034%=      5-min Rain = 0
KVA1 240944Z 21006KT 08/M06 A301 RMK A01 T00841064  RH  034%=      5-min Rain = 0
KVA1 240945Z 21007KT 08/M06 A301 RMK A01 T00831064  RH  034%=      5-min Rain = 0
KVA1 240946Z 22007KT 08/M07 A301 RMK A01 T00821065  RH  035%=      5-min Rain = 0
KVA1 240947Z 20006KT 08/M07 A301 RMK A01 T00821065  RH  035%=      5-min Rain = 0
KVA1 240948Z 20007KT 08/M07 A301 RMK A01 T00811065  RH  035%=      5-min Rain = 0
KVA1 240949Z 20008KT 08/M07 A301 RMK A01 T00811065  RH  035%=      5-min Rain = 0
KVA1 240950Z 20008KT 08/M07 A3009 RMK A01 T00811066  RH  035%=      5-min Rain = 0
KVA1 240951Z 20008KT 08/M07 A3009 RMK A01 T00811067  RH  034%=      5-min Rain = 0
KVA1 240952Z 20009KT 08/M07 A3009 RMK A01 T00821067  RH  034%=      5-min Rain = 0
KVA1 240953Z 20008KT 08/M07 A3009 RMK A01 T00821068  RH  034%=      5-min Rain = 0
KVA1 240954Z 21007KT 08/M07 A3009 RMK A01 T00831068  RH  034%=      5-min Rain = 0
KVA1 240955Z 21007KT 08/M07 A301 RMK A01 T00831068  RH  034%=      5-min Rain = 0
KVA1 240956Z 22007KT 08/M07 A301 RMK A01 T00831068  RH  034%=      5-min Rain = 0
KVA1 240957Z 22008KT 08/M07 A301 RMK A01 T00821069  RH  034%=      5-min Rain = 0
KVA1 240958Z 22007KT 08/M07 A301 RMK A01 T00831068  RH  034%=      5-min Rain = 0
KVA1 240959Z 22007KT 08/M07 A3009 RMK A01 T00821069  RH  034%=      5-min Rain = 0
KVA1 241000Z 22007KT 08/M07 A3009 RMK A01 T00821069  RH  034%=      5-min Rain = 0
KVA1 241001Z 21007KT 08/M07 A3009 RMK A01 T00811069  RH  034%=      5-min Rain = 0
KVA1 241002Z 22008KT 08/M07 A3009 RMK A01 T00811069  RH  034%=      5-min Rain = 0
KVA1 241003Z 21008KT 08/M07 A3009 RMK A01 T00811070  RH  033%=      5-min Rain = 0
KVA1 241004Z 21007KT 08/M07 A3009 RMK A01 T00821070  RH  033%=      5-min Rain = 0
KVA1 241005Z 21008KT 08/M07 A3009 RMK A01 T00831070  RH  033%=      5-min Rain = 0
KVA1 241006Z 22007KT 08/M07 A3009 RMK A01 T00831071  RH  033%=      5-min Rain = 0
KVA1 241007Z 22007KT 08/M07 A3009 RMK A01 T00831070  RH  033%=      5-min Rain = 0
KVA1 241008Z 22007KT 08/M07 A3009 RMK A01 T00831071  RH  033%=      5-min Rain = 0
KVA1 241009Z 22007KT 08/M07 A301 RMK A01 T00831071  RH  033%=      5-min Rain = 0
KVA1 241010Z 22007KT 08/M07 A301 RMK A01 T00831071  RH  033%=      5-min Rain = 0
KVA1 241011Z 21007KT 08/M07 A301 RMK A01 T00831071  RH  033%=      5-min Rain = 0
KVA1 241012Z 21006KT 08/M07 A3009 RMK A01 T00821071  RH  033%=      5-min Rain = 0
KVA1 241013Z 21008KT 08/M07 A3009 RMK A01 T00821071  RH  033%=      5-min Rain = 0
KVA1 241014Z 21007KT 08/M07 A301 RMK A01 T00831071  RH  033%=      5-min Rain = 0
KVA1 241015Z 21007KT 08/M07 A301 RMK A01 T00841071  RH  032%=      5-min Rain = 0
KVA1 241016Z 21007KT 09/M07 A301 RMK A01 T00851071  RH  032%=      5-min Rain = 0
KVA1 241017Z 22007KT 08/M07 A301 RMK A01 T00841071  RH  032%=      5-min Rain = 0
KVA1 241018Z 22007KT 08/M07 A301 RMK A01 T00841072  RH  032%=      5-min Rain = 0
KVA1 241019Z 22007KT 08/M07 A301 RMK A01 T00831072  RH  033%=      5-min Rain = 0
KVA1 241020Z 22007KT 08/M07 A301 RMK A01 T00821072  RH  033%=      5-min Rain = 0
KVA1 241021Z 23008KT 08/M07 A301 RMK A01 T00821073  RH  033%=      5-min Rain = 0
KVA1 241022Z 23007KT 08/M07 A301 RMK A01 T00811072  RH  033%=      5-min Rain = 0
KVA1 241023Z 23007KT 08/M07 A301 RMK A01 T00811072  RH  033%=      5-min Rain = 0
KVA1 241024Z 23007KT 08/M07 A301 RMK A01 T00811072  RH  033%=      5-min Rain = 0
KVA1 241025Z 23007KT 08/M07 A301 RMK A01 T00801072  RH  033%=      5-min Rain = 0
KVA1 241026Z 23006KT 08/M07 A301 RMK A01 T00801073  RH  033%=      5-min Rain = 0
KVA1 241027Z 23007KT 08/M07 A301 RMK A01 T00791073  RH  033%=      5-min Rain = 0
KVA1 241028Z 23006KT 08/M07 A301 RMK A01 T00791073  RH  033%=      5-min Rain = 0
KVA1 241029Z 23008KT 08/M07 A301 RMK A01 T00791072  RH  033%=      5-min Rain = 0
KVA1 241030Z 23008KT 08/M07 A301 RMK A01 T00791072  RH  033%=      5-min Rain = 0
KVA1 241031Z 23007KT 08/M07 A301 RMK A01 T00801072  RH  033%=      5-min Rain = 0
KVA1 241032Z 22008KT 08/M07 A301 RMK A01 T00811072  RH  033%=      5-min Rain = 0
KVA1 241033Z 23008KT 08/M07 A301 RMK A01 T00821072  RH  033%=      5-min Rain = 0
KVA1 241034Z 23006KT 08/M07 A301 RMK A01 T00831073  RH  033%=      5-min Rain = 0
KVA1 241035Z 23007KT 08/M07 A301 RMK A01 T00831073  RH  032%=      5-min Rain = 0
KVA1 241036Z 23008KT 08/M07 A301 RMK A01 T00831073  RH  032%=      5-min Rain = 0
KVA1 241037Z 23007KT 08/M07 A301 RMK A01 T00831073  RH  032%=      5-min Rain = 0
KVA1 241038Z 23007KT 08/M07 A301 RMK A01 T00831074  RH  032%=      5-min Rain = 0
KVA1 241039Z 24008KT 08/M07 A301 RMK A01 T00831073  RH  032%=      5-min Rain = 0
KVA1 241040Z 24008KT 08/M07 A301 RMK A01 T00831073  RH  032%=      5-min Rain = 0
KVA1 241041Z 24007KT 08/M07 A301 RMK A01 T00831073  RH  032%=      5-min Rain = 0
KVA1 241042Z 24007KT 08/M07 A301 RMK A01 T00831073  RH  032%=      5-min Rain = 0
KVA1 241043Z 23007KT 08/M07 A301 RMK A01 T00831073  RH  032%=      5-min Rain = 0
KVA1 241044Z 24007KT 08/M07 A301 RMK A01 T00841073  RH  032%=      5-min Rain = 0
KVA1 241045Z 24007KT 08/M07 A301 RMK A01 T00831073  RH  032%=      5-min Rain = 0
KVA1 241046Z 23006KT 08/M07 A301 RMK A01 T00821073  RH  032%=      5-min Rain = 0
KVA1 241047Z 23007KT 08/M07 A301 RMK A01 T00821073  RH  033%=      5-min Rain = 0
KVA1 241048Z 23007KT 08/M07 A301 RMK A01 T00811073  RH  033%=      5-min Rain = 0
KVA1 241049Z 23007KT 08/M07 A301 RMK A01 T00811073  RH  033%=      5-min Rain = 0
KVA1 241050Z 23007KT 08/M07 A301 RMK A01 T00811073  RH  033%=      5-min Rain = 0
KVA1 241051Z 23008KT 08/M07 A301 RMK A01 T00811073  RH  033%=      5-min Rain = 0
KVA1 241052Z 22008KT 08/M07 A301 RMK A01 T00801073  RH  033%=      5-min Rain = 0
KVA1 241053Z 22008KT 08/M07 A301 RMK A01 T00801073  RH  033%=      5-min Rain = 0
KVA1 241054Z 23008KT 08/M07 A301 RMK A01 T00801073  RH  033%=      5-min Rain = 0
KVA1 241055Z 23008KT 08/M07 A301 RMK A01 T00801073  RH  033%=      5-min Rain = 0
KVA1 241056Z 23008KT 08/M07 A301 RMK A01 T00801072  RH  033%=      5-min Rain = 0
KVA1 241057Z 23008KT 08/M07 A301 RMK A01 T00801072  RH  033%=      5-min Rain = 0
KVA1 241058Z 23008KT 08/M07 A301 RMK A01 T00791072  RH  033%=      5-min Rain = 0
KVA1 241059Z 23008KT 08/M07 A301 RMK A01 T00791072  RH  033%=      5-min Rain = 0
KVA1 241100Z 22008KT 08/M07 A301 RMK A01 T00791072  RH  033%=      5-min Rain = 0
KVA1 241101Z 22007KT 08/M07 A301 RMK A01 T00791072  RH  034%=      5-min Rain = 0
KVA1 241102Z 22008KT 08/M07 A301 RMK A01 T00781073  RH  034%=      5-min Rain = 0
KVA1 241103Z 22009KT 08/M07 A301 RMK A01 T00781073  RH  034%=      5-min Rain = 0
KVA1 241104Z 22009KT 08/M07 A301 RMK A01 T00781073  RH  033%=      5-min Rain = 0
KVA1 241105Z 22008KT 08/M07 A301 RMK A01 T00781073  RH  033%=      5-min Rain = 0
KVA1 241106Z 22008KT 08/M07 A301 RMK A01 T00781073  RH  033%=      5-min Rain = 0
KVA1 241107Z 21008KT 08/M07 A301 RMK A01 T00781073  RH  034%=      5-min Rain = 0
KVA1 241108Z 22008KT 08/M07 A3011 RMK A01 T00771073  RH  033%=      5-min Rain = 0
KVA1 241109Z 22009KT 08/M07 A3011 RMK A01 T00781073  RH  034%=      5-min Rain = 0
KVA1 241110Z 22009KT 08/M07 A3011 RMK A01 T00781073  RH  033%=      5-min Rain = 0
KVA1 241111Z 22008KT 08/M07 A3011 RMK A01 T00781073  RH  034%=      5-min Rain = 0
KVA1 241112Z 22008KT 08/M07 A3011 RMK A01 T00781073  RH  034%=      5-min Rain = 0
KVA1 241113Z 21008KT 08/M07 A3011 RMK A01 T00791073  RH  033%=      5-min Rain = 0
KVA1 241114Z 21009KT 08/M07 A3011 RMK A01 T00791073  RH  033%=      5-min Rain = 0
KVA1 241115Z 21008KT 08/M07 A3011 RMK A01 T00811073  RH  033%=      5-min Rain = 0
KVA1 241116Z 21008KT 08/M07 A3011 RMK A01 T00821073  RH  032%=      5-min Rain = 0
KVA1 241117Z 21008KT 08/M07 A3011 RMK A01 T00841073  RH  032%=      5-min Rain = 0
KVA1 241118Z 21008KT 09/M07 A3011 RMK A01 T00851073  RH  032%=      5-min Rain = 0
KVA1 241119Z 21007KT 09/M07 A3011 RMK A01 T00871073  RH  031%=      5-min Rain = 0
KVA1 241120Z 21007KT 09/M07 A3011 RMK A01 T00871073  RH  031%=      5-min Rain = 0
KVA1 241121Z 21007KT 09/M07 A3011 RMK A01 T00871074  RH  031%=      5-min Rain = 0
KVA1 241122Z 21008KT 09/M07 A3011 RMK A01 T00871074  RH  031%=      5-min Rain = 0
KVA1 241123Z 20008KT 09/M07 A3011 RMK A01 T00871074  RH  031%=      5-min Rain = 0
KVA1 241124Z 21008KT 09/M07 A3011 RMK A01 T00881074  RH  031%=      5-min Rain = 0
KVA1 241125Z 20008KT 09/M07 A3011 RMK A01 T00891074  RH  031%=      5-min Rain = 0
KVA1 241126Z 20008KT 09/M07 A3011 RMK A01 T00891074  RH  031%=      5-min Rain = 0
KVA1 241127Z 20008KT 09/M07 A3011 RMK A01 T00881074  RH  031%=      5-min Rain = 0
KVA1 241128Z 20009KT 09/M07 A3011 RMK A01 T00881074  RH  031%=      5-min Rain = 0
KVA1 241129Z 20008KT 09/M07 A3011 RMK A01 T00881074  RH  031%=      5-min Rain = 0
KVA1 241130Z 20008KT 09/M07 A3011 RMK A01 T00881074  RH  031%=      5-min Rain = 0
KVA1 241131Z 20008KT 09/M07 A3011 RMK A01 T00881074  RH  031%=      5-min Rain = 0
KVA1 241132Z 20007KT 09/M08 A3011 RMK A01 T00871075  RH  031%=      5-min Rain = 0
KVA1 241133Z 20007KT 09/M07 A3011 RMK A01 T00871074  RH  031%=      5-min Rain = 0
KVA1 241134Z 20007KT 09/M07 A3011 RMK A01 T00871074  RH  031%=      5-min Rain = 0
KVA1 241135Z 20007KT 09/M07 A3011 RMK A01 T00861074  RH  031%=      5-min Rain = 0
KVA1 241136Z 20007KT 09/M08 A3011 RMK A01 T00861075  RH  031%=      5-min Rain = 0
KVA1 241137Z 21007KT 09/M07 A3011 RMK A01 T00861074  RH  031%=      5-min Rain = 0
KVA1 241138Z 20007KT 09/M07 A3011 RMK A01 T00861074  RH  031%=      5-min Rain = 0
KVA1 241139Z 20007KT 09/M07 A3011 RMK A01 T00851074  RH  032%=      5-min Rain = 0
KVA1 241140Z 20006KT 08/M08 A3011 RMK A01 T00841075  RH  032%=      5-min Rain = 0
KVA1 241141Z 21007KT 08/M07 A3011 RMK A01 T00831074  RH  032%=      5-min Rain = 0
KVA1 241142Z 21007KT 08/M07 A3011 RMK A01 T00821074  RH  032%=      5-min Rain = 0
KVA1 241143Z 21007KT 08/M07 A3011 RMK A01 T00811074  RH  032%=      5-min Rain = 0
KVA1 241144Z 21007KT 08/M07 A3011 RMK A01 T00811074  RH  033%=      5-min Rain = 0
KVA1 241145Z 21007KT 08/M07 A3011 RMK A01 T00801074  RH  033%=      5-min Rain = 0
KVA1 241146Z 21006KT 08/M07 A3011 RMK A01 T00801074  RH  033%=      5-min Rain = 0
KVA1 241147Z 21006KT 08/M07 A3011 RMK A01 T00791074  RH  033%=      5-min Rain = 0
KVA1 241148Z 22007KT 08/M07 A3011 RMK A01 T00781074  RH  033%=      5-min Rain = 0
KVA1 241149Z 22007KT 08/M07 A3011 RMK A01 T00771074  RH  033%=      5-min Rain = 0
KVA1 241150Z 22007KT 08/M07 A3011 RMK A01 T00771074  RH  034%=      5-min Rain = 0
KVA1 241151Z 21008KT 08/M07 A3011 RMK A01 T00761074  RH  034%=      5-min Rain = 0
KVA1 241152Z 21008KT 08/M07 A3011 RMK A01 T00761073  RH  034%=      5-min Rain = 0
KVA1 241153Z 21008KT 08/M07 A3011 RMK A01 T00751074  RH  034%=      5-min Rain = 0
KVA1 241154Z 21008KT 08/M07 A3011 RMK A01 T00751074  RH  034%=      5-min Rain = 0
KVA1 241155Z 21008KT 08/M07 A3011 RMK A01 T00751074  RH  034%=      5-min Rain = 0
KVA1 241156Z 21008KT 08/M07 A3011 RMK A01 T00751074  RH  034%=      5-min Rain = 0
KVA1 241157Z 21008KT 08/M07 A3011 RMK A01 T00751074  RH  034%=      5-min Rain = 0
KVA1 241158Z 21007KT 08/M07 A3011 RMK A01 T00751074  RH  034%=      5-min Rain = 0
KVA1 241159Z 22007KT 08/M07 A3011 RMK A01 T00751074  RH  034%=      5-min Rain = 0
KVA1 241200Z 21008KT 08/M07 A3011 RMK A01 T00751074  RH  034%=      5-min Rain = 0
KVA1 241201Z 21008KT 08/M07 A3011 RMK A01 T00761073  RH  034%=      5-min Rain = 0
KVA1 241202Z 21008KT 08/M07 A3011 RMK A01 T00761074  RH  034%=      5-min Rain = 0
KVA1 241203Z 21008KT 08/M07 A3011 RMK A01 T00751074  RH  034%=      5-min Rain = 0
KVA1 241204Z 21008KT 08/M07 A3011 RMK A01 T00751074  RH  034%=      5-min Rain = 0
KVA1 241205Z 22008KT 08/M07 A3011 RMK A01 T00751074  RH  034%=      5-min Rain = 0
KVA1 241206Z 21008KT 07/M07 A3011 RMK A01 T00741074  RH  034%=      5-min Rain = 0
KVA1 241207Z 21008KT 07/M07 A3011 RMK A01 T00721074  RH  035%=      5-min Rain = 0
KVA1 241208Z 21008KT 07/M07 A3011 RMK A01 T00711074  RH  035%=      5-min Rain = 0
KVA1 241209Z 21008KT 07/M07 A3011 RMK A01 T00701074  RH  035%=      5-min Rain = 0
KVA1 241210Z 21008KT 07/M07 A3011 RMK A01 T00691074  RH  035%=      5-min Rain = 0
KVA1 241211Z 21008KT 07/M07 A3011 RMK A01 T00681074  RH  036%=      5-min Rain = 0
KVA1 241212Z 20008KT 07/M07 A3011 RMK A01 T00671073  RH  036%=      5-min Rain = 0
KVA1 241213Z 20008KT 07/M07 A3011 RMK A01 T00661073  RH  036%=      5-min Rain = 0
KVA1 241214Z 21008KT 07/M07 A3011 RMK A01 T00661073  RH  036%=      5-min Rain = 0
KVA1 241215Z 20008KT 07/M07 A3011 RMK A01 T00651073  RH  036%=      5-min Rain = 0
KVA1 241216Z 20008KT 07/M07 A3011 RMK A01 T00651073  RH  037%=      5-min Rain = 0
KVA1 241217Z 20008KT 07/M07 A3011 RMK A01 T00651073  RH  037%=      5-min Rain = 0
KVA1 241218Z 22007KT 07/M07 A3011 RMK A01 T00651073  RH  037%=      5-min Rain = 0
KVA1 241219Z 21008KT 06/M07 A3011 RMK A01 T00641073  RH  037%=      5-min Rain = 0
KVA1 241220Z 21007KT 06/M07 A3011 RMK A01 T00641073  RH  037%=      5-min Rain = 0
KVA1 241221Z 21007KT 06/M07 A3011 RMK A01 T00641073  RH  037%=      5-min Rain = 0
KVA1 241222Z 22008KT 06/M07 A3011 RMK A01 T00641072  RH  037%=      5-min Rain = 0
KVA1 241223Z 22007KT 06/M07 A3011 RMK A01 T00631073  RH  037%=      5-min Rain = 0
KVA1 241224Z 22007KT 06/M07 A3011 RMK A01 T00641072  RH  037%=      5-min Rain = 0
KVA1 241225Z 22007KT 06/M07 A3011 RMK A01 T00641072  RH  037%=      5-min Rain = 0
KVA1 241226Z 22008KT 06/M07 A3011 RMK A01 T00641073  RH  037%=      5-min Rain = 0
KVA1 241227Z 22008KT 06/M07 A3011 RMK A01 T00641073  RH  037%=      5-min Rain = 0
KVA1 241228Z 21007KT 06/M07 A3011 RMK A01 T00641073  RH  037%=      5-min Rain = 0
KVA1 241229Z 22007KT 07/M07 A3011 RMK A01 T00651072  RH  037%=      5-min Rain = 0
KVA1 241230Z 22007KT 07/M07 A3011 RMK A01 T00651073  RH  037%=      5-min Rain = 0
KVA1 241231Z 21007KT 06/M07 A3011 RMK A01 T00641073  RH  037%=      5-min Rain = 0
KVA1 241232Z 22007KT 06/M07 A3011 RMK A01 T00641073  RH  037%=      5-min Rain = 0
KVA1 241233Z 21007KT 06/M07 A3011 RMK A01 T00641073  RH  037%=      5-min Rain = 0
KVA1 241234Z 22008KT 06/M07 A3011 RMK A01 T00641073  RH  037%=      5-min Rain = 0
KVA1 241235Z 22007KT 06/M07 A3011 RMK A01 T00641072  RH  037%=      5-min Rain = 0
KVA1 241236Z 21007KT 06/M07 A3011 RMK A01 T00641073  RH  037%=      5-min Rain = 0
KVA1 241237Z 22007KT 06/M07 A3011 RMK A01 T00641073  RH  037%=      5-min Rain = 0
KVA1 241238Z 22007KT 06/M07 A3011 RMK A01 T00641073  RH  037%=      5-min Rain = 0
KVA1 241239Z 22007KT 06/M07 A3011 RMK A01 T00631073  RH  037%=      5-min Rain = 0
KVA1 241240Z 22007KT 06/M07 A3011 RMK A01 T00631073  RH  037%=      5-min Rain = 0
KVA1 241241Z 22006KT 06/M07 A3011 RMK A01 T00631073  RH  037%=      5-min Rain = 0
KVA1 241242Z 22006KT 06/M07 A3012 RMK A01 T00631073  RH  037%=      5-min Rain = 0
KVA1 241243Z 22007KT 06/M07 A3012 RMK A01 T00631073  RH  037%=      5-min Rain = 0
KVA1 241244Z 22006KT 06/M07 A3012 RMK A01 T00621073  RH  037%=      5-min Rain = 0
KVA1 241245Z 22007KT 06/M07 A3012 RMK A01 T00621073  RH  037%=      5-min Rain = 0
KVA1 241246Z 22007KT 06/M07 A3012 RMK A01 T00621073  RH  037%=      5-min Rain = 0
KVA1 241247Z 22007KT 06/M07 A3012 RMK A01 T00621073  RH  037%=      5-min Rain = 0
KVA1 241248Z 22007KT 06/M07 A3012 RMK A01 T00611073  RH  038%=      5-min Rain = 0
KVA1 241249Z 23007KT 06/M07 A3012 RMK A01 T00621072  RH  038%=      5-min Rain = 0
KVA1 241250Z 22006KT 06/M07 A3012 RMK A01 T00611073  RH  038%=      5-min Rain = 0
KVA1 241251Z 22007KT 06/M07 A3012 RMK A01 T00611072  RH  038%=      5-min Rain = 0
KVA1 241252Z 22006KT 06/M07 A3012 RMK A01 T00621072  RH  038%=      5-min Rain = 0
KVA1 241253Z 22007KT 06/M07 A3012 RMK A01 T00621072  RH  038%=      5-min Rain = 0
KVA1 241254Z 22006KT 06/M07 A3012 RMK A01 T00631071  RH  038%=      5-min Rain = 0
KVA1 241255Z 22007KT 06/M07 A3012 RMK A01 T00631072  RH  037%=      5-min Rain = 0
KVA1 241256Z 22007KT 06/M07 A3012 RMK A01 T00631071  RH  038%=      5-min Rain = 0
KVA1 241257Z 22007KT 06/M07 A3012 RMK A01 T00631071  RH  038%=      5-min Rain = 0
KVA1 241258Z 22007KT 06/M07 A3012 RMK A01 T00631071  RH  038%=      5-min Rain = 0
KVA1 241259Z 22006KT 06/M07 A3012 RMK A01 T00631071  RH  038%=      5-min Rain = 0
KVA1 241300Z 22007KT 06/M07 A3012 RMK A01 T00631070  RH  038%=      5-min Rain = 0
KVA1 241301Z 22007KT 06/M07 A3012 RMK A01 T00631071  RH  038%=      5-min Rain = 0
KVA1 241302Z 21007KT 06/M07 A3012 RMK A01 T00631071  RH  038%=      5-min Rain = 0
KVA1 241303Z 22007KT 06/M07 A3012 RMK A01 T00631071  RH  037%=      5-min Rain = 0
KVA1 241304Z 22007KT 06/M07 A3012 RMK A01 T00641072  RH  037%=      5-min Rain = 0
KVA1 241305Z 22007KT 06/M07 A3012 RMK A01 T00641072  RH  037%=      5-min Rain = 0
KVA1 241306Z 22007KT 06/M07 A3012 RMK A01 T00641072  RH  037%=      5-min Rain = 0
KVA1 241307Z 22007KT 06/M07 A3012 RMK A01 T00641072  RH  037%=      5-min Rain = 0
KVA1 241308Z 22007KT 06/M07 A3012 RMK A01 T00641072  RH  037%=      5-min Rain = 0
KVA1 241309Z 22008KT 06/M07 A3012 RMK A01 T00641072  RH  037%=      5-min Rain = 0
KVA1 241310Z 22008KT 06/M07 A3012 RMK A01 T00641072  RH  037%=      5-min Rain = 0
KVA1 241311Z 22008KT 06/M07 A3012 RMK A01 T00641072  RH  037%=      5-min Rain = 0
KVA1 241312Z 22008KT 06/M07 A3012 RMK A01 T00631072  RH  037%=      5-min Rain = 0
KVA1 241313Z 22007KT 06/M07 A3012 RMK A01 T00631072  RH  037%=      5-min Rain = 0
KVA1 241314Z 22008KT 06/M07 A3012 RMK A01 T00631072  RH  037%=      5-min Rain = 0
KVA1 241315Z 22008KT 06/M07 A3012 RMK A01 T00631072  RH  037%=      5-min Rain = 0
KVA1 241316Z 22008KT 06/M07 A3012 RMK A01 T00631072  RH  037%=      5-min Rain = 0
KVA1 241317Z 21008KT 06/M07 A3012 RMK A01 T00631073  RH  037%=      5-min Rain = 0
KVA1 241318Z 22008KT 06/M07 A3012 RMK A01 T00631073  RH  037%=      5-min Rain = 0
KVA1 241319Z 22007KT 06/M07 A3012 RMK A01 T00631072  RH  037%=      5-min Rain = 0
KVA1 241320Z 22007KT 06/M07 A3012 RMK A01 T00631072  RH  037%=      5-min Rain = 0
KVA1 241321Z 21008KT 06/M07 A3012 RMK A01 T00631073  RH  037%=      5-min Rain = 0
KVA1 241322Z 22007KT 06/M07 A3012 RMK A01 T00631073  RH  037%=      5-min Rain = 0
KVA1 241323Z 23007KT 06/M07 A3012 RMK A01 T00641073  RH  037%=      5-min Rain = 0
KVA1 241324Z 21008KT 06/M07 A3012 RMK A01 T00641073  RH  037%=      5-min Rain = 0
KVA1 241325Z 22008KT 07/M07 A3012 RMK A01 T00651072  RH  037%=      5-min Rain = 0
KVA1 241326Z 22009KT 07/M07 A3012 RMK A01 T00661072  RH  036%=      5-min Rain = 0
KVA1 241327Z 21008KT 07/M07 A3012 RMK A01 T00671073  RH  036%=      5-min Rain = 0
KVA1 241328Z 21008KT 07/M07 A3012 RMK A01 T00671073  RH  036%=      5-min Rain = 0
KVA1 241329Z 21008KT 07/M07 A3012 RMK A01 T00681073  RH  036%=      5-min Rain = 0
KVA1 241330Z 21008KT 07/M07 A3012 RMK A01 T00681073  RH  036%=      5-min Rain = 0
KVA1 241331Z 21007KT 07/M07 A3012 RMK A01 T00691073  RH  035%=      5-min Rain = 0
KVA1 241332Z 21007KT 07/M07 A3012 RMK A01 T00701073  RH  035%=      5-min Rain = 0
KVA1 241333Z 22008KT 07/M07 A3012 RMK A01 T00711073  RH  035%=      5-min Rain = 0
KVA1 241334Z 21007KT 07/M07 A3013 RMK A01 T00721074  RH  035%=      5-min Rain = 0
KVA1 241335Z 21009KT 07/M07 A3013 RMK A01 T00731074  RH  035%=      5-min Rain = 0
KVA1 241336Z 21008KT 07/M07 A3012 RMK A01 T00741073  RH  034%=      5-min Rain = 0
KVA1 241337Z 21008KT 07/M07 A3012 RMK A01 T00741074  RH  034%=      5-min Rain = 0
KVA1 241338Z 21009KT 08/M07 A3012 RMK A01 T00751074  RH  034%=      5-min Rain = 0
KVA1 241339Z 21009KT 08/M07 A3013 RMK A01 T00771074  RH  034%=      5-min Rain = 0
KVA1 241340Z 21009KT 08/M07 A3013 RMK A01 T00781074  RH  033%=      5-min Rain = 0
KVA1 241341Z 21010KT 08/M07 A3013 RMK A01 T00791074  RH  033%=      5-min Rain = 0
KVA1 241342Z 21009KT 08/M07 A3013 RMK A01 T00801074  RH  033%=      5-min Rain = 0
KVA1 241343Z 21010KT 08/M07 A3013 RMK A01 T00811074  RH  032%=      5-min Rain = 0
KVA1 241344Z 21009KT 08/M07 A3013 RMK A01 T00831074  RH  032%=      5-min Rain = 0
KVA1 241345Z 21008KT 08/M07 A3013 RMK A01 T00841074  RH  032%=      5-min Rain = 0
KVA1 241346Z 22008KT 09/M07 A3013 RMK A01 T00851074  RH  032%=      5-min Rain = 0
KVA1 241347Z 21008KT 09/M07 A3013 RMK A01 T00861074  RH  031%=      5-min Rain = 0
KVA1 241348Z 21007KT 09/M07 A3013 RMK A01 T00871074  RH  031%=      5-min Rain = 0
KVA1 241349Z 21009KT 09/M07 A3013 RMK A01 T00871073  RH  031%=      5-min Rain = 0
KVA1 241350Z 21008KT 09/M07 A3013 RMK A01 T00881073  RH  031%=      5-min Rain = 0
KVA1 241351Z 22008KT 09/M07 A3013 RMK A01 T00881073  RH  031%=      5-min Rain = 0
KVA1 241352Z 21009KT 09/M07 A3013 RMK A01 T00891073  RH  031%=      5-min Rain = 0
KVA1 241353Z 21008KT 09/M07 A3013 RMK A01 T00901073  RH  031%=      5-min Rain = 0
KVA1 241354Z 22008KT 09/M07 A3013 RMK A01 T00901072  RH  031%=      5-min Rain = 0
KVA1 241355Z 21007KT 09/M07 A3013 RMK A01 T00911073  RH  031%=      5-min Rain = 0
KVA1 241356Z 23009KT 09/M07 A3013 RMK A01 T00911072  RH  031%=      5-min Rain = 0
KVA1 241357Z 22009KT 09/M07 A3013 RMK A01 T00921072  RH  031%=      5-min Rain = 0
KVA1 241358Z 20008KT 09/M07 A3013 RMK A01 T00931072  RH  030%=      5-min Rain = 0
KVA1 241359Z 21008KT 09/M07 A3013 RMK A01 T00941072  RH  030%=      5-min Rain = 0
KVA1 241400Z 21008KT 10/M07 A3013 RMK A01 T00951072  RH  030%=      5-min Rain = 0
KVA1 241401Z 22008KT 10/M07 A3013 RMK A01 T00961072  RH  030%=      5-min Rain = 0
KVA1 241402Z 21009KT 10/M07 A3013 RMK A01 T00961072  RH  030%=      5-min Rain = 0
KVA1 241403Z 21009KT 10/M07 A3014 RMK A01 T00961072  RH  030%=      5-min Rain = 0
KVA1 241404Z 22009KT 10/M07 A3014 RMK A01 T00961071  RH  030%=      5-min Rain = 0
KVA1 241405Z 21008KT 10/M07 A3014 RMK A01 T00971070  RH  030%=      5-min Rain = 0
KVA1 241406Z 21009KT 10/M07 A3014 RMK A01 T00971070  RH  030%=      5-min Rain = 0
KVA1 241407Z 21009KT 10/M07 A3014 RMK A01 T00981069  RH  030%=      5-min Rain = 0
KVA1 241408Z 21010KT 10/M07 A3014 RMK A01 T00981070  RH  030%=      5-min Rain = 0
KVA1 241409Z 21010KT 10/M07 A3014 RMK A01 T00981070  RH  030%=      5-min Rain = 0
KVA1 241410Z 21010KT 10/M07 A3014 RMK A01 T00991070  RH  030%=      5-min Rain = 0
KVA1 241411Z 21010KT 10/M07 A3014 RMK A01 T00991069  RH  030%=      5-min Rain = 0
KVA1 241412Z 21010KT 10/M07 A3014 RMK A01 T01001069  RH  030%=      5-min Rain = 0
KVA1 241413Z 21011KT 10/M07 A3014 RMK A01 T01001069  RH  030%=      5-min Rain = 0
KVA1 241414Z 20009KT 10/M07 A3014 RMK A01 T01001069  RH  030%=      5-min Rain = 0
KVA1 241415Z 21010KT 10/M07 A3014 RMK A01 T01011069  RH  030%=      5-min Rain = 0
KVA1 241416Z 20010KT 10/M07 A3014 RMK A01 T01021068  RH  030%=      5-min Rain = 0
KVA1 241417Z 21008KT 10/M07 A3014 RMK A01 T01021067  RH  030%=      5-min Rain = 0
KVA1 241418Z 21010KT 10/M07 A3014 RMK A01 T01031067  RH  030%=      5-min Rain = 0
KVA1 241419Z 21010KT 10/M07 A3014 RMK A01 T01031068  RH  029%=      5-min Rain = 0
KVA1 241420Z 21010KT 10/M07 A3014 RMK A01 T01031068  RH  029%=      5-min Rain = 0
KVA1 241421Z 21010KT 10/M07 A3014 RMK A01 T01041067  RH  029%=      5-min Rain = 0
KVA1 241422Z 22010KT 10/M07 A3015 RMK A01 T01041068  RH  029%=      5-min Rain = 0
KVA1 241423Z 20009KT 11/M07 A3015 RMK A01 T01051069  RH  029%=      5-min Rain = 0
KVA1 241424Z 20011KT 11/M07 A3015 RMK A01 T01061068  RH  029%=      5-min Rain = 0
KVA1 241425Z 21009KT 11/M07 A3015 RMK A01 T01071068  RH  029%=      5-min Rain = 0
KVA1 241426Z 20010KT 11/M07 A3015 RMK A01 T01071068  RH  029%=      5-min Rain = 0
KVA1 241427Z 20010KT 11/M07 A3014 RMK A01 T01071068  RH  029%=      5-min Rain = 0
KVA1 241428Z 21010KT 11/M07 A3015 RMK A01 T01081069  RH  028%=      5-min Rain = 0
KVA1 241429Z 21010KT 11/M07 A3015 RMK A01 T01091069  RH  028%=      5-min Rain = 0
KVA1 241430Z 21008KT 11/M07 A3015 RMK A01 T01091069  RH  028%=      5-min Rain = 0
KVA1 241431Z 21009KT 11/M07 A3015 RMK A01 T01111068  RH  028%=      5-min Rain = 0
KVA1 241432Z 21009KT 11/M07 A3015 RMK A01 T01121068  RH  028%=      5-min Rain = 0
KVA1 241433Z 21008KT 11/M07 A3015 RMK A01 T01131067  RH  028%=      5-min Rain = 0
KVA1 241434Z 21008KT 12/M07 A3015 RMK A01 T01151066  RH  028%=      5-min Rain = 0
KVA1 241435Z 21008KT 12/M07 A3015 RMK A01 T01161066  RH  027%=      5-min Rain = 0
KVA1 241436Z 20008KT 12/M07 A3015 RMK A01 T01181066  RH  027%=      5-min Rain = 0
KVA1 241437Z 20008KT 12/M07 A3015 RMK A01 T01191066  RH  027%=      5-min Rain = 0
KVA1 241438Z 20008KT 12/M07 A3015 RMK A01 T01191066  RH  027%=      5-min Rain = 0
KVA1 241439Z 20008KT 12/M07 A3015 RMK A01 T01201065  RH  027%=      5-min Rain = 0
KVA1 241440Z 20009KT 12/M07 A3015 RMK A01 T01211066  RH  027%=      5-min Rain = 0
KVA1 241441Z 20008KT 12/M07 A3015 RMK A01 T01201066  RH  027%=      5-min Rain = 0
KVA1 241442Z 21008KT 12/M07 A3015 RMK A01 T01201065  RH  027%=      5-min Rain = 0
KVA1 241443Z 21008KT 12/M07 A3016 RMK A01 T01211065  RH  027%=      5-min Rain = 0
KVA1 241444Z 21006KT 12/M07 A3016 RMK A01 T01211065  RH  027%=      5-min Rain = 0
KVA1 241445Z 21007KT 12/M06 A3016 RMK A01 T01221063  RH  027%=      5-min Rain = 0
KVA1 241446Z 21008KT 12/M06 A3016 RMK A01 T01241063  RH  027%=      5-min Rain = 0
KVA1 241447Z 21009KT 12/M06 A3016 RMK A01 T01241064  RH  026%=      5-min Rain = 0
KVA1 241448Z 20009KT 12/M06 A3016 RMK A01 T01241064  RH  026%=      5-min Rain = 0
KVA1 241449Z 21008KT 13/M06 A3016 RMK A01 T01251063  RH  026%=      5-min Rain = 0
KVA1 241450Z 21009KT 13/M06 A3016 RMK A01 T01261062  RH  026%=      5-min Rain = 0
KVA1 241451Z 20009KT 13/M06 A3016 RMK A01 T01281062  RH  026%=      5-min Rain = 0
KVA1 241452Z 20008KT 13/M06 A3016 RMK A01 T01301061  RH  026%=      5-min Rain = 0
KVA1 241453Z 20007KT 13/M06 A3016 RMK A01 T01311060  RH  026%=      5-min Rain = 0
KVA1 241454Z 20007KT 13/M06 A3016 RMK A01 T01341059  RH  026%=      5-min Rain = 0
KVA1 241455Z 21005KT 14/M06 A3016 RMK A01 T01351059  RH  025%=      5-min Rain = 0
KVA1 241456Z 21006KT 14/M06 A3016 RMK A01 T01361059  RH  025%=      5-min Rain = 0
KVA1 241457Z 20006KT 14/M06 A3016 RMK A01 T01371059  RH  025%=      5-min Rain = 0
KVA1 241458Z 20005KT 14/M06 A3016 RMK A01 T01391057  RH  025%=      5-min Rain = 0
KVA1 241459Z 20008KT 14/M06 A3016 RMK A01 T01401058  RH  025%=      5-min Rain = 0
KVA1 241500Z 20006KT 14/M06 A3016 RMK A01 T01411058  RH  025%=      5-min Rain = 0
KVA1 241501Z 20006KT 14/M06 A3016 RMK A01 T01431056  RH  025%=      5-min Rain = 0
KVA1 241502Z 20006KT 14/M06 A3016 RMK A01 T01431057  RH  025%=      5-min Rain = 0
KVA1 241503Z 20006KT 15/M06 A3016 RMK A01 T01451055  RH  025%=      5-min Rain = 0
KVA1 241504Z 20007KT 15/M06 A3016 RMK A01 T01471055  RH  024%=      5-min Rain = 0
KVA1 241505Z 20006KT 15/M06 A3016 RMK A01 T01471055  RH  024%=      5-min Rain = 0
KVA1 241506Z 19007KT 15/M06 A3016 RMK A01 T01481055  RH  024%=      5-min Rain = 0
KVA1 241507Z 20007KT 15/M06 A3016 RMK A01 T01481055  RH  024%=      5-min Rain = 0
KVA1 241508Z 19006KT 15/M05 A3016 RMK A01 T01491054  RH  024%=      5-min Rain = 0
KVA1 241509Z 20007KT 15/M05 A3016 RMK A01 T01511053  RH  024%=      5-min Rain = 0
KVA1 241510Z 20007KT 15/M05 A3016 RMK A01 T01531052  RH  024%=      5-min Rain = 0
KVA1 241511Z 19007KT 16/M05 A3016 RMK A01 T01561051  RH  024%=      5-min Rain = 0
KVA1 241512Z 20006KT 16/M05 A3016 RMK A01 T01571052  RH  023%=      5-min Rain = 0
KVA1 241513Z 19006KT 16/M05 A3016 RMK A01 T01571052  RH  023%=      5-min Rain = 0
KVA1 241514Z 20008KT 16/M05 A3016 RMK A01 T01581053  RH  023%=      5-min Rain = 0
KVA1 241515Z 20006KT 16/M05 A3016 RMK A01 T01591052  RH  023%=      5-min Rain = 0
KVA1 241516Z 19007KT 16/M05 A3016 RMK A01 T01611051  RH  023%=      5-min Rain = 0
KVA1 241517Z 19007KT 16/M05 A3016 RMK A01 T01631052  RH  022%=      5-min Rain = 0
KVA1 241518Z 19007KT 16/M05 A3016 RMK A01 T01641052  RH  022%=      5-min Rain = 0
KVA1 241519Z 20008KT 17/M05 A3016 RMK A01 T01661051  RH  022%=      5-min Rain = 0
KVA1 241520Z 20007KT 17/M05 A3016 RMK A01 T01661051  RH  022%=      5-min Rain = 0
KVA1 241521Z 19007KT 17/M05 A3016 RMK A01 T01671051  RH  022%=      5-min Rain = 0
KVA1 241522Z 19008KT 17/M05 A3016 RMK A01 T01681050  RH  022%=      5-min Rain = 0
KVA1 241523Z 19009KT 17/M05 A3016 RMK A01 T01681051  RH  022%=      5-min Rain = 0
KVA1 241524Z 20007KT 17/M05 A3016 RMK A01 T01681052  RH  022%=      5-min Rain = 0
KVA1 241525Z 20007KT 17/M05 A3016 RMK A01 T01681050  RH  022%=      5-min Rain = 0
KVA1 241526Z 19007KT 17/M05 A3016 RMK A01 T01701050  RH  022%=      5-min Rain = 0
KVA1 241527Z 19007KT 17/M05 A3016 RMK A01 T01701051  RH  022%=      5-min Rain = 0
KVA1 241528Z 19008KT 17/M05 A3016 RMK A01 T01701050  RH  022%=      5-min Rain = 0
KVA1 241529Z 19008KT 17/M05 A3016 RMK A01 T01701049  RH  022%=      5-min Rain = 0
KVA1 241530Z 19008KT 17/M05 A3016 RMK A01 T01701050  RH  022%=      5-min Rain = 0
KVA1 241531Z 18008KT 17/M05 A3016 RMK A01 T01701048  RH  022%=      5-min Rain = 0
KVA1 241532Z 20007KT 17/M05 A3016 RMK A01 T01711048  RH  022%=      5-min Rain = 0
KVA1 241533Z 19007KT 17/M05 A3016 RMK A01 T01731047  RH  022%=      5-min Rain = 0
KVA1 241534Z 20008KT 17/M05 A3016 RMK A01 T01731046  RH  022%=      5-min Rain = 0
KVA1 241535Z 19009KT 18/M05 A3016 RMK A01 T01751046  RH  022%=      5-min Rain = 0
KVA1 241536Z 19008KT 18/M05 A3016 RMK A01 T01751046  RH  022%=      5-min Rain = 0
KVA1 241537Z 18008KT 18/M05 A3016 RMK A01 T01761045  RH  022%=      5-min Rain = 0
KVA1 241538Z 18008KT 18/M05 A3016 RMK A01 T01761045  RH  022%=      5-min Rain = 0
KVA1 241539Z 18009KT 18/M05 A3016 RMK A01 T01781045  RH  022%=      5-min Rain = 0
KVA1 241540Z 19008KT 18/M05 A3016 RMK A01 T01811045  RH  021%=      5-min Rain = 0
KVA1 241541Z 19008KT 18/M05 A3016 RMK A01 T01811046  RH  021%=      5-min Rain = 0
KVA1 241542Z 19007KT 18/M05 A3016 RMK A01 T01821045  RH  021%=      5-min Rain = 0
KVA1 241543Z 19006KT 18/M05 A3016 RMK A01 T01841045  RH  021%=      5-min Rain = 0
KVA1 241544Z 18009KT 19/M04 A3016 RMK A01 T01851044  RH  021%=      5-min Rain = 0
KVA1 241545Z 18007KT 19/M04 A3016 RMK A01 T01881044  RH  020%=      5-min Rain = 0
KVA1 241546Z 20006KT 19/M04 A3016 RMK A01 T01901043  RH  020%=      5-min Rain = 0
KVA1 241547Z 19008KT 19/M04 A3016 RMK A01 T01921044  RH  020%=      5-min Rain = 0
KVA1 241548Z 19007KT 19/M04 A3016 RMK A01 T01931044  RH  020%=      5-min Rain = 0
KVA1 241549Z 19007KT 19/M05 A3016 RMK A01 T01921045  RH  020%=      5-min Rain = 0
KVA1 241550Z 21007KT 19/M05 A3016 RMK A01 T01911045  RH  020%=      5-min Rain = 0
KVA1 241551Z 21007KT 19/M05 A3016 RMK A01 T01911046  RH  020%=      5-min Rain = 0
KVA1 241552Z 20006KT 19/M05 A3016 RMK A01 T01911046  RH  020%=      5-min Rain = 0
KVA1 241553Z 19006KT 19/M05 A3016 RMK A01 T01921045  RH  020%=      5-min Rain = 0
KVA1 241554Z 22006KT 19/M04 A3016 RMK A01 T01931044  RH  020%=      5-min Rain = 0
KVA1 241555Z 19008KT 20/M04 A3016 RMK A01 T01961042  RH  020%=      5-min Rain = 0
KVA1 241556Z 21008KT 20/M04 A3016 RMK A01 T01981042  RH  019%=      5-min Rain = 0
KVA1 241557Z 22008KT 20/M04 A3016 RMK A01 T01981043  RH  019%=      5-min Rain = 0
KVA1 241558Z 25009KT 20/M04 A3016 RMK A01 T01981043  RH  019%=      5-min Rain = 0
KVA1 241559Z 24007KT 20/M05 A3016 RMK A01 T01981045  RH  019%=      5-min Rain = 0
KVA1 241600Z 22006KT 20/M04 A3016 RMK A01 T02001044  RH  019%=      5-min Rain = 0
KVA1 241601Z 24008KT 20/M04 A3016 RMK A01 T02011043  RH  019%=      5-min Rain = 0
KVA1 241602Z 25007KT 20/M04 A3016 RMK A01 T02031042  RH  019%=      5-min Rain = 0
KVA1 241603Z 26007KT 21/M04 A3016 RMK A01 T02061044  RH  018%=      5-min Rain = 0
KVA1 241604Z 27006KT 21/M04 A3016 RMK A01 T02091043  RH  018%=      5-min Rain = 0
KVA1 241605Z 29007KT 21/M04 A3016 RMK A01 T02131042  RH  018%=      5-min Rain = 0
KVA1 241606Z 29008G15KT 22/M04 A3016 RMK A01 T02161043  RH  017%=      5-min Rain = 0
KVA1 241607Z 27011KT 22/M04 A3016 RMK A01 T02161044  RH  017%=      5-min Rain = 0
KVA1 241608Z 22007KT 22/M04 A3016 RMK A01 T02171041  RH  017%=      5-min Rain = 0
KVA1 241609Z 27006KT 22/M04 A3016 RMK A01 T02161043  RH  017%=      5-min Rain = 0
KVA1 241610Z 28008KT 22/M05 A3017 RMK A01 T02161045  RH  017%=      5-min Rain = 0
KVA1 241611Z 31006KT 22/M05 A3016 RMK A01 T02161047  RH  017%=      5-min Rain = 0
KVA1 241612Z 30011KT 22/M04 A3017 RMK A01 T02161044  RH  017%=      5-min Rain = 0
KVA1 241613Z 30012KT 22/M05 A3016 RMK A01 T02171047  RH  017%=      5-min Rain = 0
KVA1 241614Z 31012KT 22/M05 A3016 RMK A01 T02161048  RH  017%=      5-min Rain = 0
KVA1 241615Z 30013KT 22/M05 A3016 RMK A01 T02171047  RH  017%=      5-min Rain = 0
KVA1 241616Z 29012KT 22/M05 A3016 RMK A01 T02161049  RH  017%=      5-min Rain = 0
KVA1 241617Z 28013KT 21/M05 A3017 RMK A01 T02131050  RH  017%=      5-min Rain = 0
KVA1 241618Z 28013KT 21/M05 A3017 RMK A01 T02121049  RH  017%=      5-min Rain = 0
KVA1 241619Z 28009KT 21/M05 A3016 RMK A01 T02121049  RH  017%=      5-min Rain = 0
KVA1 241620Z 29013G18KT 21/M05 A3017 RMK A01 T02141047  RH  017%=      5-min Rain = 0
KVA1 241621Z 30010KT 22/M05 A3017 RMK A01 T02161047  RH  017%=      5-min Rain = 0
KVA1 241622Z 29011G17KT 22/M05 A3017 RMK A01 T02161048  RH  017%=      5-min Rain = 0
KVA1 241623Z 29012KT 22/M05 A3017 RMK A01 T02171048  RH  016%=      5-min Rain = 0
KVA1 241624Z 28011KT 22/M05 A3017 RMK A01 T02161050  RH  016%=      5-min Rain = 0
KVA1 241625Z 29011KT 22/M05 A3017 RMK A01 T02151050  RH  017%=      5-min Rain = 0
KVA1 241626Z 28008KT 22/M05 A3017 RMK A01 T02151048  RH  017%=      5-min Rain = 0
KVA1 241627Z 27011KT 22/M05 A3016 RMK A01 T02191047  RH  016%=      5-min Rain = 0
KVA1 241628Z 28010KT 22/M05 A3016 RMK A01 T02191048  RH  016%=      5-min Rain = 0
KVA1 241629Z 28009KT 22/M05 A3016 RMK A01 T02191049  RH  016%=      5-min Rain = 0
KVA1 241630Z 30014KT 22/M05 A3016 RMK A01 T02201047  RH  016%=      5-min Rain = 0
KVA1 241631Z 30015KT 22/M05 A3017 RMK A01 T02201048  RH  016%=      5-min Rain = 0
KVA1 241632Z 29010KT 22/M05 A3017 RMK A01 T02181050  RH  016%=      5-min Rain = 0
KVA1 241633Z 30010KT 22/M05 A3017 RMK A01 T02181050  RH  016%=      5-min Rain = 0
KVA1 241634Z 27011KT 22/M05 A3017 RMK A01 T02191050  RH  016%=      5-min Rain = 0
KVA1 241635Z 28012G17KT 22/M05 A3017 RMK A01 T02191050  RH  016%=      5-min Rain = 0
KVA1 241636Z 27010KT 22/M05 A3017 RMK A01 T02181051  RH  016%=      5-min Rain = 0
KVA1 241637Z 28010KT 22/M05 A3017 RMK A01 T02181049  RH  016%=      5-min Rain = 0
KVA1 241638Z 29011KT 22/M05 A3017 RMK A01 T02191048  RH  016%=      5-min Rain = 0
KVA1 241639Z 27009KT 22/M05 A3017 RMK A01 T02201049  RH  016%=      5-min Rain = 0
KVA1 241640Z 27008KT 22/M05 A3017 RMK A01 T02201049  RH  016%=      5-min Rain = 0
KVA1 241641Z 28010KT 22/M05 A3017 RMK A01 T02231047  RH  016%=      5-min Rain = 0
KVA1 241642Z 28012KT 22/M05 A3017 RMK A01 T02231049  RH  016%=      5-min Rain = 0
KVA1 241643Z 29009KT 22/M05 A3017 RMK A01 T02231049  RH  016%=      5-min Rain = 0
KVA1 241644Z 29009KT 22/M05 A3017 RMK A01 T02221049  RH  016%=      5-min Rain = 0
KVA1 241645Z 27008KT 22/M05 A3017 RMK A01 T02221049  RH  016%=      5-min Rain = 0
KVA1 241646Z 28012KT 22/M05 A3017 RMK A01 T02221050  RH  016%=      5-min Rain = 0
KVA1 241647Z 28014KT 22/M05 A3017 RMK A01 T02211054  RH  015%=      5-min Rain = 0
KVA1 241648Z 27011KT 22/M06 A3017 RMK A01 T02191055  RH  016%=      5-min Rain = 0
KVA1 241649Z 26009KT 22/M05 A3017 RMK A01 T02201052  RH  016%=      5-min Rain = 0
KVA1 241650Z 28011KT 22/M05 A3017 RMK A01 T02231051  RH  016%=      5-min Rain = 0
KVA1 241651Z 26011KT 22/M05 A3017 RMK A01 T02231053  RH  015%=      5-min Rain = 0
KVA1 241652Z 26014KT 22/M05 A3017 RMK A01 T02231054  RH  015%=      5-min Rain = 0
KVA1 241653Z 25015KT 22/M05 A3017 RMK A01 T02221054  RH  015%=      5-min Rain = 0
KVA1 241654Z 25012KT 22/M05 A3017 RMK A01 T02231053  RH  015%=      5-min Rain = 0
KVA1 241655Z 24011KT 22/M05 A3017 RMK A01 T02231053  RH  015%=      5-min Rain = 0
KVA1 241656Z 25009KT 23/M05 A3017 RMK A01 T02251053  RH  015%=      5-min Rain = 0
KVA1 241657Z 24010G15KT 23/M05 A3017 RMK A01 T02271052  RH  015%=      5-min Rain = 0
KVA1 241658Z 26010KT 23/M05 A3017 RMK A01 T02281053  RH  015%=      5-min Rain = 0
KVA1 241659Z 27011KT 23/M05 A3017 RMK A01 T02271052  RH  015%=      5-min Rain = 0
KVA1 241700Z 26014KT 23/M06 A3017 RMK A01 T02281057  RH  014%=      5-min Rain = 0
KVA1 241701Z 26012KT 23/M06 A3017 RMK A01 T02281057  RH  014%=      5-min Rain = 0
KVA1 241702Z 27010KT 23/M06 A3017 RMK A01 T02271057  RH  015%=      5-min Rain = 0
KVA1 241703Z 26011KT 23/M06 A3017 RMK A01 T02261056  RH  015%=      5-min Rain = 0
KVA1 241704Z 29010G16KT 23/M06 A3017 RMK A01 T02251057  RH  015%=      5-min Rain = 0
KVA1 241705Z 29011KT 23/M06 A3017 RMK A01 T02251056  RH  015%=      5-min Rain = 0
KVA1 241706Z 30010G15KT 23/M06 A3017 RMK A01 T02261056  RH  015%=      5-min Rain = 0
KVA1 241707Z 29012KT 23/M06 A3017 RMK A01 T02261057  RH  015%=      5-min Rain = 0
KVA1 241708Z 30011G18KT 23/M06 A3016 RMK A01 T02251058  RH  015%=      5-min Rain = 0
KVA1 241709Z 27014KT 23/M06 A3016 RMK A01 T02261055  RH  015%=      5-min Rain = 0
KVA1 241710Z 27012KT 23/M05 A3017 RMK A01 T02301054  RH  015%=      5-min Rain = 0
KVA1 241711Z 25009KT 23/M06 A3017 RMK A01 T02301055  RH  014%=      5-min Rain = 0
KVA1 241712Z 26010KT 23/M06 A3017 RMK A01 T02321055  RH  014%=      5-min Rain = 0
KVA1 241713Z 29013KT 23/M06 A3017 RMK A01 T02341055  RH  014%=      5-min Rain = 0
KVA1 241714Z 27008G13KT 23/M06 A3017 RMK A01 T02321055  RH  014%=      5-min Rain = 0
KVA1 241715Z 27010KT 23/M05 A3017 RMK A01 T02311054  RH  014%=      5-min Rain = 0
KVA1 241716Z 25011KT 23/M06 A3017 RMK A01 T02301055  RH  015%=      5-min Rain = 0
KVA1 241717Z 26013KT 23/M06 A3017 RMK A01 T02311055  RH  014%=      5-min Rain = 0
KVA1 241718Z 27011KT 23/M06 A3017 RMK A01 T02301057  RH  014%=      5-min Rain = 0
KVA1 241719Z 26006KT 23/M06 A3017 RMK A01 T02291055  RH  015%=      5-min Rain = 0
KVA1 241720Z 27006G11KT 23/M06 A3017 RMK A01 T02291057  RH  014%=      5-min Rain = 0
KVA1 241721Z 28006KT 23/M06 A3017 RMK A01 T02301055  RH  015%=      5-min Rain = 0
KVA1 241722Z 27014G19KT 23/M05 A3017 RMK A01 T02331054  RH  014%=      5-min Rain = 0
KVA1 241723Z 24011KT 23/M06 A3017 RMK A01 T02321058  RH  014%=      5-min Rain = 0
KVA1 241724Z 26010KT 23/M06 A3017 RMK A01 T02301058  RH  014%=      5-min Rain = 0
KVA1 241725Z 27010KT 23/M06 A3017 RMK A01 T02301059  RH  014%=      5-min Rain = 0
KVA1 241726Z 27011KT 23/M06 A3017 RMK A01 T02301057  RH  014%=      5-min Rain = 0
KVA1 241727Z 28012G18KT 23/M06 A3017 RMK A01 T02341055  RH  014%=      5-min Rain = 0
KVA1 241728Z 26012KT 24/M06 A3017 RMK A01 T02371060  RH  013%=      5-min Rain = 0
KVA1 241729Z 26013KT 24/M06 A3017 RMK A01 T02371063  RH  013%=      5-min Rain = 0
KVA1 241730Z 27015KT 24/M06 A3017 RMK A01 T02361064  RH  013%=      5-min Rain = 0
KVA1 241731Z 28015G21KT 24/M06 A3017 RMK A01 T02361064  RH  013%=      5-min Rain = 0
KVA1 241732Z 28014KT 23/M07 A3017 RMK A01 T02341069  RH  013%=      5-min Rain = 0
KVA1 241733Z 28017G23KT 23/M07 A3017 RMK A01 T02311065  RH  013%=      5-min Rain = 0
KVA1 241734Z 27015KT 23/M06 A3017 RMK A01 T02301062  RH  014%=      5-min Rain = 0
KVA1 241735Z 27013KT 23/M06 A3017 RMK A01 T02291063  RH  014%=      5-min Rain = 0
KVA1 241736Z 27014KT 23/M06 A3017 RMK A01 T02301062  RH  014%=      5-min Rain = 0
KVA1 241737Z 27017G22KT 23/M07 A3017 RMK A01 T02331067  RH  013%=      5-min Rain = 0
KVA1 241738Z 26015G21KT 23/M07 A3017 RMK A01 T02341071  RH  012%=      5-min Rain = 0
KVA1 241739Z 26015KT 24/M07 A3017 RMK A01 T02351073  RH  012%=      5-min Rain = 0
KVA1 241740Z 26014KT 23/M07 A3017 RMK A01 T02341070  RH  013%=      5-min Rain = 0
KVA1 241741Z 26011G17KT 23/M07 A3017 RMK A01 T02341068  RH  013%=      5-min Rain = 0
KVA1 241742Z 26017KT 23/M07 A3017 RMK A01 T02331067  RH  013%=      5-min Rain = 0
KVA1 241743Z 26017KT 23/M06 A3017 RMK A01 T02331064  RH  013%=      5-min Rain = 0
KVA1 241744Z 26015G20KT 23/M07 A3017 RMK A01 T02311069  RH  013%=      5-min Rain = 0
KVA1 241745Z 26016G21KT 23/M07 A3017 RMK A01 T02321071  RH  013%=      5-min Rain = 0
KVA1 241746Z 26016KT 23/M07 A3017 RMK A01 T02331072  RH  012%=      5-min Rain = 0
KVA1 241747Z 25012KT 23/M07 A3017 RMK A01 T02301071  RH  013%=      5-min Rain = 0
KVA1 241748Z 26010KT 23/M07 A3017 RMK A01 T02311066  RH  013%=      5-min Rain = 0
KVA1 241749Z 26014KT 24/M06 A3017 RMK A01 T02351063  RH  013%=      5-min Rain = 0
KVA1 241750Z 26011KT 24/M06 A3017 RMK A01 T02391063  RH  013%=      5-min Rain = 0
KVA1 241751Z 27014KT 24/M06 A3017 RMK A01 T02391064  RH  013%=      5-min Rain = 0
KVA1 241752Z 26014KT 24/M06 A3017 RMK A01 T02371064  RH  013%=      5-min Rain = 0
KVA1 241753Z 26015KT 24/M06 A3017 RMK A01 T02381062  RH  013%=      5-min Rain = 0
KVA1 241754Z 26013KT 24/M06 A3017 RMK A01 T02381064  RH  013%=      5-min Rain = 0
KVA1 241755Z 27009KT 24/M07 A3017 RMK A01 T02361065  RH  013%=      5-min Rain = 0
KVA1 241756Z 26017KT 24/M06 A3017 RMK A01 T02351063  RH  013%=      5-min Rain = 0
KVA1 241757Z 27014G19KT 23/M06 A3017 RMK A01 T02341063  RH  013%=      5-min Rain = 0
KVA1 241758Z 26012KT 24/M06 A3017 RMK A01 T02371062  RH  013%=      5-min Rain = 0
KVA1 241759Z 27014KT 24/M06 A3017 RMK A01 T02401061  RH  013%=      5-min Rain = 0
KVA1 241800Z 27011G16KT 24/M06 A3017 RMK A01 T02401063  RH  013%=      5-min Rain = 0
KVA1 241801Z 28012KT 24/M06 A3017 RMK A01 T02351064  RH  013%=      5-min Rain = 0
KVA1 241802Z 26014KT 24/M06 A3017 RMK A01 T02351060  RH  014%=      5-min Rain = 0
KVA1 241803Z 25012KT 24/M06 A3017 RMK A01 T02361061  RH  013%=      5-min Rain = 0
KVA1 241804Z 24015KT 24/M06 A3017 RMK A01 T02371060  RH  013%=      5-min Rain = 0
KVA1 241805Z 25016KT 24/M06 A3017 RMK A01 T02381062  RH  013%=      5-min Rain = 0
KVA1 241806Z 25013KT 24/M07 A3017 RMK A01 T02361066  RH  013%=      5-min Rain = 0
KVA1 241807Z 25013G18KT 24/M07 A3016 RMK A01 T02361066  RH  013%=      5-min Rain = 0
KVA1 241808Z 25014KT 24/M07 A3017 RMK A01 T02381066  RH  013%=      5-min Rain = 0
KVA1 241809Z 26014G21KT 24/M07 A3017 RMK A01 T02391066  RH  013%=      5-min Rain = 0
KVA1 241810Z 26016G24KT 24/M06 A3017 RMK A01 T02421062  RH  013%=      5-min Rain = 0
KVA1 241811Z 26016G21KT 24/M06 A3017 RMK A01 T02421064  RH  013%=      5-min Rain = 0
KVA1 241812Z 25012KT 24/M07 A3017 RMK A01 T02411065  RH  013%=      5-min Rain = 0
KVA1 241813Z 26012KT 24/M07 A3016 RMK A01 T02401067  RH  012%=      5-min Rain = 0
KVA1 241814Z 27012KT 24/M07 A3017 RMK A01 T02401065  RH  013%=      5-min Rain = 0
KVA1 241815Z 26015KT 24/M07 A3016 RMK A01 T02401065  RH  013%=      5-min Rain = 0
KVA1 241816Z 27015KT 24/M06 A3016 RMK A01 T02391063  RH  013%=      5-min Rain = 0
KVA1 241817Z 26013G18KT 24/M06 A3016 RMK A01 T02371064  RH  013%=      5-min Rain = 0
KVA1 241818Z 26016KT 24/M06 A3016 RMK A01 T02371063  RH  013%=      5-min Rain = 0
KVA1 241819Z 25012G17KT 24/M07 A3016 RMK A01 T02361065  RH  013%=      5-min Rain = 0
KVA1 241820Z 26007G15KT 23/M07 A3016 RMK A01 T02341066  RH  013%=      5-min Rain = 0
KVA1 241821Z 24007G12KT 23/M07 A3016 RMK A01 T02331065  RH  013%=      5-min Rain = 0
KVA1 241822Z 24015G20KT 24/M06 A3016 RMK A01 T02351062  RH  013%=      5-min Rain = 0
KVA1 241823Z 25014G19KT 24/M06 A3016 RMK A01 T02401062  RH  013%=      5-min Rain = 0
KVA1 241824Z 23012KT 24/M06 A3015 RMK A01 T02381064  RH  013%=      5-min Rain = 0
KVA1 241825Z 25012KT 24/M06 A3016 RMK A01 T02391063  RH  013%=      5-min Rain = 0
KVA1 241826Z 26017KT 24/M07 A3016 RMK A01 T02411066  RH  012%=      5-min Rain = 0
KVA1 241827Z 27018KT 24/M07 A3016 RMK A01 T02411068  RH  012%=      5-min Rain = 0
KVA1 241828Z 27016KT 24/M07 A3016 RMK A01 T02401072  RH  012%=      5-min Rain = 0
KVA1 241829Z 28014G22KT 24/M08 A3016 RMK A01 T02391075  RH  012%=      5-min Rain = 0
KVA1 241830Z 28016G22KT 24/M07 A3016 RMK A01 T02381071  RH  012%=      5-min Rain = 0
KVA1 241831Z 27015G22KT 24/M07 A3016 RMK A01 T02361069  RH  012%=      5-min Rain = 0
KVA1 241832Z 27014KT 24/M07 A3016 RMK A01 T02381066  RH  013%=      5-min Rain = 0
KVA1 241833Z 28015KT 24/M07 A3016 RMK A01 T02401070  RH  012%=      5-min Rain = 0
KVA1 241834Z 28013KT 24/M08 A3015 RMK A01 T02371075  RH  012%=      5-min Rain = 0
KVA1 241835Z 27013G19KT 24/M07 A3015 RMK A01 T02371072  RH  012%=      5-min Rain = 0
KVA1 241836Z 28012KT 24/M07 A3015 RMK A01 T02381072  RH  012%=      5-min Rain = 0
KVA1 241837Z 28017KT 24/M07 A3015 RMK A01 T02391073  RH  012%=      5-min Rain = 0
KVA1 241838Z 28014KT 24/M08 A3015 RMK A01 T02391075  RH  012%=      5-min Rain = 0
KVA1 241839Z 28015G20KT 24/M08 A3015 RMK A01 T02401075  RH  012%=      5-min Rain = 0
KVA1 241840Z 27017KT 24/M08 A3015 RMK A01 T02411076  RH  012%=      5-min Rain = 0
KVA1 241841Z 27013KT 24/M07 A3015 RMK A01 T02391073  RH  012%=      5-min Rain = 0
KVA1 241842Z 26013KT 24/M07 A3015 RMK A01 T02421069  RH  012%=      5-min Rain = 0
KVA1 241843Z 27015KT 25/M07 A3015 RMK A01 T02451069  RH  012%=      5-min Rain = 0
KVA1 241844Z 28012KT 24/M07 A3015 RMK A01 T02421072  RH  012%=      5-min Rain = 0
KVA1 241845Z 26008KT 24/M07 A3014 RMK A01 T02401072  RH  012%=      5-min Rain = 0
KVA1 241846Z 28009KT 24/M07 A3014 RMK A01 T02411068  RH  012%=      5-min Rain = 0
KVA1 241847Z 28015KT 25/M07 A3014 RMK A01 T02451069  RH  012%=      5-min Rain = 0
KVA1 241848Z 28015KT 25/M07 A3014 RMK A01 T02451072  RH  012%=      5-min Rain = 0
KVA1 241849Z 28013KT 24/M07 A3014 RMK A01 T02441073  RH  012%=      5-min Rain = 0
KVA1 241850Z 30013KT 24/M07 A3014 RMK A01 T02431073  RH  012%=      5-min Rain = 0
KVA1 241851Z 28006G13KT 24/M08 A3015 RMK A01 T02401075  RH  012%=      5-min Rain = 0
KVA1 241852Z 26005KT 24/M07 A3015 RMK A01 T02431070  RH  012%=      5-min Rain = 0
KVA1 241853Z 24007KT 25/M07 A3014 RMK A01 T02471069  RH  012%=      5-min Rain = 0
KVA1 241854Z 26008KT 25/M07 A3014 RMK A01 T02471068  RH  012%=      5-min Rain = 0
KVA1 241855Z 27008KT 25/M07 A3014 RMK A01 T02491066  RH  012%=      5-min Rain = 0
KVA1 241856Z 25007KT 25/M07 A3014 RMK A01 T02521066  RH  012%=      5-min Rain = 0
KVA1 241857Z 27010G16KT 26/M07 A3014 RMK A01 T02551068  RH  011%=      5-min Rain = 0
KVA1 241858Z 29014KT 25/M07 A3014 RMK A01 T02531072  RH  011%=      5-min Rain = 0
KVA1 241859Z 29009KT 25/M07 A3014 RMK A01 T02481074  RH  011%=      5-min Rain = 0
KVA1 241900Z 28009G15KT 25/M07 A3014 RMK A01 T02501071  RH  011%=      5-min Rain = 0
KVA1 241901Z 25012KT 25/M07 A3014 RMK A01 T02541069  RH  011%=      5-min Rain = 0
KVA1 241902Z 25012KT 25/M07 A3014 RMK A01 T02531070  RH  011%=      5-min Rain = 0
KVA1 241903Z 25010KT 25/M07 A3014 RMK A01 T02511069  RH  011%=      5-min Rain = 0
KVA1 241904Z 24010KT 25/M07 A3014 RMK A01 T02481069  RH  012%=      5-min Rain = 0
KVA1 241905Z 23009KT 25/M07 A3014 RMK A01 T02471068  RH  012%=      5-min Rain = 0
KVA1 241906Z 24010KT 25/M07 A3014 RMK A01 T02461068  RH  012%=      5-min Rain = 0
KVA1 241907Z 24008KT 24/M07 A3014 RMK A01 T02431071  RH  012%=      5-min Rain = 0
KVA1 241908Z 25010G15KT 24/M07 A3014 RMK A01 T02391072  RH  012%=      5-min Rain = 0
KVA1 241909Z 26011KT 24/M07 A3014 RMK A01 T02401068  RH  012%=      5-min Rain = 0
KVA1 241910Z 25016G21KT 25/M07 A3014 RMK A01 T02451066  RH  012%=      5-min Rain = 0
KVA1 241911Z 24013KT 25/M07 A3014 RMK A01 T02501070  RH  011%=      5-min Rain = 0
KVA1 241912Z 23013KT 25/M07 A3014 RMK A01 T02501071  RH  011%=      5-min Rain = 0
KVA1 241913Z 22014KT 25/M07 A3013 RMK A01 T02461072  RH  011%=      5-min Rain = 0
KVA1 241914Z 22011G17KT 25/M07 A3013 RMK A01 T02451072  RH  012%=      5-min Rain = 0
KVA1 241915Z 22009KT 24/M07 A3013 RMK A01 T02431074  RH  012%=      5-min Rain = 0
KVA1 241916Z 25012KT 24/M07 A3013 RMK A01 T02411073  RH  012%=      5-min Rain = 0
KVA1 241917Z 27009KT 24/M07 A3013 RMK A01 T02421073  RH  012%=      5-min Rain = 0
KVA1 241918Z 25007KT 24/M07 A3013 RMK A01 T02411074  RH  012%=      5-min Rain = 0
KVA1 241919Z 24006KT 24/M07 A3013 RMK A01 T02401074  RH  012%=      5-min Rain = 0
KVA1 241920Z 28007KT 24/M07 A3013 RMK A01 T02401073  RH  012%=      5-min Rain = 0
KVA1 241921Z 26010G15KT 24/M07 A3013 RMK A01 T02411073  RH  012%=      5-min Rain = 0
KVA1 241922Z 26013KT 24/M08 A3013 RMK A01 T02441075  RH  011%=      5-min Rain = 0
KVA1 241923Z 25014G19KT 25/M08 A3013 RMK A01 T02451077  RH  011%=      5-min Rain = 0
KVA1 241924Z 26011KT 25/M08 A3013 RMK A01 T02461075  RH  011%=      5-min Rain = 0
KVA1 241925Z 23013KT 25/M07 A3013 RMK A01 T02481074  RH  011%=      5-min Rain = 0
KVA1 241926Z 23012G18KT 25/M08 A3013 RMK A01 T02491076  RH  011%=      5-min Rain = 0
KVA1 241927Z 23015KT 25/M08 A3013 RMK A01 T02501076  RH  011%=      5-min Rain = 0
KVA1 241928Z 23013KT 25/M08 A3013 RMK A01 T02481080  RH  011%=      5-min Rain = 0
KVA1 241929Z 26009KT 25/M08 A3013 RMK A01 T02461081  RH  011%=      5-min Rain = 0
KVA1 241930Z 27013G18KT 25/M08 A3013 RMK A01 T02461079  RH  011%=      5-min Rain = 0
KVA1 241931Z 26009KT 25/M08 A3012 RMK A01 T02451079  RH  011%=      5-min Rain = 0
KVA1 241932Z 26012KT 24/M08 A3012 RMK A01 T02441077  RH  011%=      5-min Rain = 0
KVA1 241933Z 24014KT 25/M08 A3013 RMK A01 T02491077  RH  011%=      5-min Rain = 0
KVA1 241934Z 27012KT 25/M08 A3013 RMK A01 T02501079  RH  011%=      5-min Rain = 0
KVA1 241935Z 28011KT 25/M08 A3013 RMK A01 T02481076  RH  011%=      5-min Rain = 0
KVA1 241936Z 28008KT 24/M07 A3012 RMK A01 T02441074  RH  011%=      5-min Rain = 0
KVA1 241937Z 29008KT 24/M07 A3012 RMK A01 T02441074  RH  011%=      5-min Rain = 0
KVA1 241938Z 26006KT 24/M07 A3012 RMK A01 T02431073  RH  012%=      5-min Rain = 0
KVA1 241939Z 24013G18KT 25/M08 A3012 RMK A01 T02471075  RH  011%=      5-min Rain = 0
KVA1 241940Z 25010G16KT 25/M08 A3012 RMK A01 T02501084  RH  010%=      5-min Rain = 0
KVA1 241941Z 23011G16KT 25/M09 A3012 RMK A01 T02541085  RH  010%=      5-min Rain = 0
KVA1 241942Z 24011KT 26/M09 A3012 RMK A01 T02561087  RH  010%=      5-min Rain = 0
KVA1 241943Z 24012KT 25/M09 A3012 RMK A01 T02531090  RH  010%=      5-min Rain = 0
KVA1 241944Z 23012KT 25/M08 A3012 RMK A01 T02511084  RH  010%=      5-min Rain = 0
KVA1 241945Z 21009KT 25/M08 A3012 RMK A01 T02491083  RH  010%=      5-min Rain = 0
KVA1 241946Z 23010KT 25/M08 A3012 RMK A01 T02481083  RH  011%=      5-min Rain = 0
KVA1 241947Z 22012KT 25/M09 A3012 RMK A01 T02471085  RH  010%=      5-min Rain = 0
KVA1 241948Z 22010G17KT 25/M09 A3012 RMK A01 T02471086  RH  010%=      5-min Rain = 0
KVA1 241949Z 25012KT 25/M08 A3012 RMK A01 T02511083  RH  010%=      5-min Rain = 0
KVA1 241950Z 27014G19KT 26/M08 A3012 RMK A01 T02581083  RH  010%=      5-min Rain = 0
KVA1 241951Z 27016KT 26/M09 A3012 RMK A01 T02561089  RH  010%=      5-min Rain = 0
KVA1 241952Z 27010KT 25/M09 A3012 RMK A01 T02501090  RH  010%=      5-min Rain = 0
KVA1 241953Z 26012KT 25/M09 A3012 RMK A01 T02491086  RH  010%=      5-min Rain = 0
KVA1 241954Z 27009KT 25/M08 A3012 RMK A01 T02511080  RH  011%=      5-min Rain = 0
KVA1 241955Z 25011KT 25/M08 A3012 RMK A01 T02521078  RH  011%=      5-min Rain = 0
KVA1 241956Z 25011G16KT 26/M08 A3012 RMK A01 T02551077  RH  011%=      5-min Rain = 0
KVA1 241957Z 24012KT 26/M08 A3011 RMK A01 T02581076  RH  010%=      5-min Rain = 0
KVA1 241958Z 24010KT 26/M08 A3012 RMK A01 T02551080  RH  010%=      5-min Rain = 0
KVA1 241959Z 24011KT 25/M08 A3011 RMK A01 T02521079  RH  011%=      5-min Rain = 0
KVA1 242000Z 23011KT 25/M08 A3012 RMK A01 T02511078  RH  011%=      5-min Rain = 0
KVA1 242001Z 25010KT 25/M08 A3011 RMK A01 T02511078  RH  011%=      5-min Rain = 0
KVA1 242002Z 26009G14KT 25/M08 A3011 RMK A01 T02491078  RH  011%=      5-min Rain = 0
KVA1 242003Z 26007KT 25/M08 A3011 RMK A01 T02461079  RH  011%=      5-min Rain = 0
KVA1 242004Z 25009KT 25/M08 A3011 RMK A01 T02461078  RH  011%=      5-min Rain = 0
KVA1 242005Z 26009G15KT 25/M07 A3011 RMK A01 T02491074  RH  011%=      5-min Rain = 0
KVA1 242006Z 26012KT 25/M07 A3011 RMK A01 T02521074  RH  011%=      5-min Rain = 0
KVA1 242007Z 26008KT 25/M08 A3011 RMK A01 T02511075  RH  011%=      5-min Rain = 0
KVA1 242008Z 26008KT 25/M08 A3011 RMK A01 T02491077  RH  011%=      5-min Rain = 0
KVA1 242009Z 25011KT 25/M08 A3011 RMK A01 T02481078  RH  011%=      5-min Rain = 0
KVA1 242010Z 27010KT 25/M08 A3011 RMK A01 T02521081  RH  010%=      5-min Rain = 0
KVA1 242011Z 26012KT 26/M09 A3011 RMK A01 T02551086  RH  010%=      5-min Rain = 0
KVA1 242012Z 26014G19KT 26/M08 A3011 RMK A01 T02551084  RH  010%=      5-min Rain = 0
KVA1 242013Z 25012KT 25/M08 A3011 RMK A01 T02531081  RH  010%=      5-min Rain = 0
KVA1 242014Z 26010KT 25/M08 A3011 RMK A01 T02521080  RH  010%=      5-min Rain = 0
KVA1 242015Z 24012KT 25/M08 A3011 RMK A01 T02531080  RH  010%=      5-min Rain = 0
KVA1 242016Z 25011G16KT 26/M08 A3011 RMK A01 T02551079  RH  010%=      5-min Rain = 0
KVA1 242017Z 25010G17KT 26/M08 A3011 RMK A01 T02591076  RH  010%=      5-min Rain = 0
KVA1 242018Z 26015G20KT 26/M08 A3011 RMK A01 T02591076  RH  010%=      5-min Rain = 0
KVA1 242019Z 27013KT 26/M08 A3011 RMK A01 T02581077  RH  010%=      5-min Rain = 0
KVA1 242020Z 26013KT 25/M08 A3011 RMK A01 T02541079  RH  010%=      5-min Rain = 0
KVA1 242021Z 27010G17KT 25/M08 A3011 RMK A01 T02521077  RH  011%=      5-min Rain = 0
KVA1 242022Z 28013KT 25/M08 A3011 RMK A01 T02531076  RH  011%=      5-min Rain = 0
KVA1 242023Z 27008KT 25/M08 A3011 RMK A01 T02521075  RH  011%=      5-min Rain = 0
KVA1 242024Z 26010KT 25/M07 A3011 RMK A01 T02511073  RH  011%=      5-min Rain = 0
KVA1 242025Z 26013KT 25/M07 A3011 RMK A01 T02541070  RH  011%=      5-min Rain = 0
KVA1 242026Z 25007KT 25/M07 A3011 RMK A01 T02531071  RH  011%=      5-min Rain = 0
KVA1 242027Z 24013KT 26/M07 A3011 RMK A01 T02561066  RH  011%=      5-min Rain = 0
KVA1 242028Z 25011KT 26/M07 A3011 RMK A01 T02561068  RH  011%=      5-min Rain = 0
KVA1 242029Z 25007KT 25/M07 A3011 RMK A01 T02521068  RH  011%=      5-min Rain = 0
KVA1 242030Z 28007KT 25/M07 A3011 RMK A01 T02501068  RH  012%=      5-min Rain = 0
KVA1 242031Z 26010KT 25/M07 A3011 RMK A01 T02511066  RH  012%=      5-min Rain = 0
KVA1 242032Z 28013G18KT 25/M07 A3011 RMK A01 T02521066  RH  012%=      5-min Rain = 0
KVA1 242033Z 28010G16KT 25/M07 A3011 RMK A01 T02521068  RH  011%=      5-min Rain = 0
KVA1 242034Z 26009KT 25/M07 A301 RMK A01 T02501069  RH  012%=      5-min Rain = 0
KVA1 242035Z 31009KT 25/M07 A301 RMK A01 T02501068  RH  012%=      5-min Rain = 0
KVA1 242036Z 30010KT 25/M07 A301 RMK A01 T02511068  RH  012%=      5-min Rain = 0
KVA1 242037Z 28009KT 25/M07 A301 RMK A01 T02521066  RH  012%=      5-min Rain = 0
KVA1 242038Z 27009KT 25/M07 A301 RMK A01 T02531065  RH  012%=      5-min Rain = 0
KVA1 242039Z 27013G18KT 25/M07 A301 RMK A01 T02521066  RH  012%=      5-min Rain = 0
KVA1 242040Z 27013G18KT 25/M07 A301 RMK A01 T02511067  RH  012%=      5-min Rain = 0
KVA1 242041Z 25008KT 25/M07 A301 RMK A01 T02531067  RH  012%=      5-min Rain = 0
KVA1 242042Z 27009G14KT 25/M07 A301 RMK A01 T02541068  RH  011%=      5-min Rain = 0
KVA1 242043Z 26012G17KT 26/M07 A301 RMK A01 T02561067  RH  011%=      5-min Rain = 0
KVA1 242044Z 29008G15KT 26/M07 A301 RMK A01 T02591065  RH  011%=      5-min Rain = 0
KVA1 242045Z 29013G18KT 26/M07 A301 RMK A01 T02611065  RH  011%=      5-min Rain = 0
KVA1 242046Z 29013KT 26/M07 A301 RMK A01 T02611068  RH  011%=      5-min Rain = 0
KVA1 242047Z 28009KT 26/M07 A301 RMK A01 T02571068  RH  011%=      5-min Rain = 0
KVA1 242048Z 28013KT 26/M07 A301 RMK A01 T02581066  RH  011%=      5-min Rain = 0
KVA1 242049Z 28010KT 25/M07 A301 RMK A01 T02541068  RH  011%=      5-min Rain = 0
KVA1 242050Z 29008KT 25/M07 A301 RMK A01 T02511069  RH  012%=      5-min Rain = 0
KVA1 242051Z 28010G15KT 25/M07 A301 RMK A01 T02531067  RH  011%=      5-min Rain = 0
KVA1 242052Z 27009G16KT 26/M07 A301 RMK A01 T02571066  RH  011%=      5-min Rain = 0
KVA1 242053Z 28017KT 26/M07 A301 RMK A01 T02611066  RH  011%=      5-min Rain = 0
KVA1 242054Z 28014KT 26/M07 A301 RMK A01 T02571069  RH  011%=      5-min Rain = 0
KVA1 242055Z 29015KT 25/M07 A301 RMK A01 T02541069  RH  011%=      5-min Rain = 0
KVA1 242056Z 30014KT 25/M07 A301 RMK A01 T02531070  RH  011%=      5-min Rain = 0
KVA1 242057Z 30012KT 25/M07 A301 RMK A01 T02501072  RH  011%=      5-min Rain = 0
KVA1 242058Z 26010G15KT 25/M07 A301 RMK A01 T02491070  RH  012%=      5-min Rain = 0
KVA1 242059Z 27008KT 25/M07 A3009 RMK A01 T02491069  RH  012%=      5-min Rain = 0
KVA1 242100Z 26009KT 26/M07 A3009 RMK A01 T02551066  RH  011%=      5-min Rain = 0
KVA1 242101Z 25009KT 26/M07 A301 RMK A01 T02581067  RH  011%=      5-min Rain = 0
KVA1 242102Z 26010KT 26/M07 A3009 RMK A01 T02591069  RH  011%=      5-min Rain = 0
KVA1 242103Z 26008KT 26/M07 A3009 RMK A01 T02571070  RH  011%=      5-min Rain = 0
KVA1 242104Z 26008KT 26/M07 A3009 RMK A01 T02591067  RH  011%=      5-min Rain = 0
KVA1 242105Z 25008KT 26/M07 A3009 RMK A01 T02591070  RH  011%=      5-min Rain = 0
KVA1 242106Z 27004KT 26/M07 A3009 RMK A01 T02551071  RH  011%=      5-min Rain = 0
KVA1 242107Z 29010G16KT 26/M07 A3009 RMK A01 T02561067  RH  011%=      5-min Rain = 0
KVA1 242108Z 29012KT 26/M07 A3009 RMK A01 T02591069  RH  011%=      5-min Rain = 0
KVA1 242109Z 29009KT 26/M07 A3009 RMK A01 T02591070  RH  011%=      5-min Rain = 0
KVA1 242110Z 27011G16KT 26/M07 A3009 RMK A01 T02611069  RH  011%=      5-min Rain = 0
KVA1 242111Z 28012G18KT 26/M07 A3009 RMK A01 T02611071  RH  011%=      5-min Rain = 0
KVA1 242112Z 26017KT 26/M07 A3009 RMK A01 T02591071  RH  011%=      5-min Rain = 0
KVA1 242113Z 25011KT 26/M07 A3009 RMK A01 T02571071  RH  011%=      5-min Rain = 0
KVA1 242114Z 25015G21KT 26/M07 A3009 RMK A01 T02571069  RH  011%=      5-min Rain = 0
KVA1 242115Z 26014KT 26/M07 A3009 RMK A01 T02571069  RH  011%=      5-min Rain = 0
KVA1 242116Z 27012KT 26/M07 A3009 RMK A01 T02561068  RH  011%=      5-min Rain = 0
KVA1 242117Z 28016KT 26/M07 A3009 RMK A01 T02561068  RH  011%=      5-min Rain = 0
KVA1 242118Z 28015KT 26/M07 A3009 RMK A01 T02551067  RH  011%=      5-min Rain = 0
KVA1 242119Z 28013KT 25/M07 A3009 RMK A01 T02541067  RH  011%=      5-min Rain = 0
KVA1 242120Z 29009KT 25/M07 A3009 RMK A01 T02531068  RH  011%=      5-min Rain = 0
KVA1 242121Z 28008KT 25/M07 A3009 RMK A01 T02531067  RH  011%=      5-min Rain = 0
KVA1 242122Z 27006KT 26/M06 A3009 RMK A01 T02581064  RH  011%=      5-min Rain = 0
KVA1 242123Z 26007KT 26/M07 A3009 RMK A01 T02611065  RH  011%=      5-min Rain = 0
KVA1 242124Z 27009KT 26/M06 A3009 RMK A01 T02621064  RH  011%=      5-min Rain = 0
KVA1 242125Z 28011KT 26/M07 A3009 RMK A01 T02621066  RH  011%=      5-min Rain = 0
KVA1 242126Z 27008G13KT 26/M07 A3009 RMK A01 T02621066  RH  011%=      5-min Rain = 0
KVA1 242127Z 27011G16KT 26/M07 A3009 RMK A01 T02641071  RH  010%=      5-min Rain = 0
KVA1 242128Z 27014G20KT 26/M08 A3009 RMK A01 T02641076  RH  010%=      5-min Rain = 0
KVA1 242129Z 28015G20KT 26/M08 A3009 RMK A01 T02641076  RH  010%=      5-min Rain = 0
KVA1 242130Z 26013KT 26/M08 A3009 RMK A01 T02621077  RH  010%=      5-min Rain = 0
KVA1 242131Z 27013G19KT 26/M08 A3009 RMK A01 T02591077  RH  010%=      5-min Rain = 0
KVA1 242132Z 26010KT 26/M07 A3009 RMK A01 T02591074  RH  011%=      5-min Rain = 0
KVA1 242133Z 24008KT 26/M07 A3009 RMK A01 T02581074  RH  011%=      5-min Rain = 0
KVA1 242134Z 24009KT 26/M08 A3009 RMK A01 T02581075  RH  010%=      5-min Rain = 0
KVA1 242135Z 27011KT 26/M07 A3009 RMK A01 T02601074  RH  010%=      5-min Rain = 0
KVA1 242136Z 26011KT 26/M07 A3009 RMK A01 T02591073  RH  011%=      5-min Rain = 0
KVA1 242137Z 27012KT 26/M07 A3009 RMK A01 T02601071  RH  011%=      5-min Rain = 0
KVA1 242138Z 27005KT 26/M07 A3009 RMK A01 T02581073  RH  011%=      5-min Rain = 0
KVA1 242139Z 29005KT 26/M07 A3009 RMK A01 T02561073  RH  011%=      5-min Rain = 0
KVA1 242140Z 29011G19KT 25/M07 A3009 RMK A01 T02541072  RH  011%=      5-min Rain = 0
KVA1 242141Z 28014G19KT 26/M07 A3009 RMK A01 T02551069  RH  011%=      5-min Rain = 0
KVA1 242142Z 27012KT 26/M07 A3009 RMK A01 T02591068  RH  011%=      5-min Rain = 0
KVA1 242143Z 27012KT 26/M07 A3009 RMK A01 T02601069  RH  011%=      5-min Rain = 0
KVA1 242144Z 27008KT 26/M07 A3009 RMK A01 T02591070  RH  011%=      5-min Rain = 0
KVA1 242145Z 27008KT 26/M07 A3009 RMK A01 T02591069  RH  011%=      5-min Rain = 0
KVA1 242146Z 26012KT 26/M07 A3009 RMK A01 T02591069  RH  011%=      5-min Rain = 0
KVA1 242147Z 26013KT 26/M07 A3009 RMK A01 T02601068  RH  011%=      5-min Rain = 0
KVA1 242148Z 26013KT 26/M07 A3009 RMK A01 T02601070  RH  011%=      5-min Rain = 0
KVA1 242149Z 27010KT 26/M07 A3009 RMK A01 T02591069  RH  011%=      5-min Rain = 0
KVA1 242150Z 27012KT 26/M07 A3009 RMK A01 T02601068  RH  011%=      5-min Rain = 0
KVA1 242151Z 27012KT 26/M07 A3009 RMK A01 T02581068  RH  011%=      5-min Rain = 0
KVA1 242152Z 26009KT 26/M07 A3009 RMK A01 T02581067  RH  011%=      5-min Rain = 0
KVA1 242153Z 23010KT 26/M07 A3009 RMK A01 T02581067  RH  011%=      5-min Rain = 0
KVA1 242154Z 22009KT 26/M07 A3009 RMK A01 T02561068  RH  011%=      5-min Rain = 0
KVA1 242155Z 24007KT 26/M07 A3009 RMK A01 T02571068  RH  011%=      5-min Rain = 0
KVA1 242156Z 25009KT 26/M07 A3009 RMK A01 T02601065  RH  011%=      5-min Rain = 0
KVA1 242157Z 24007KT 26/M07 A3008 RMK A01 T02601068  RH  011%=      5-min Rain = 0
KVA1 242158Z 25008KT 26/M07 A3008 RMK A01 T02581069  RH  011%=      5-min Rain = 0
KVA1 242159Z 28008KT 26/M07 A3009 RMK A01 T02561069  RH  011%=      5-min Rain = 0
KVA1 242200Z 26008G16KT 26/M07 A3009 RMK A01 T02561068  RH  011%=      5-min Rain = 0
KVA1 242201Z 27016G21KT 26/M07 A3008 RMK A01 T02581067  RH  011%=      5-min Rain = 0
KVA1 242202Z 27014KT 26/M07 A3009 RMK A01 T02601069  RH  011%=      5-min Rain = 0
KVA1 242203Z 28015KT 26/M07 A3009 RMK A01 T02601069  RH  011%=      5-min Rain = 0
KVA1 242204Z 26012KT 26/M07 A3009 RMK A01 T02581071  RH  011%=      5-min Rain = 0
KVA1 242205Z 26012KT 26/M07 A3009 RMK A01 T02561071  RH  011%=      5-min Rain = 0
KVA1 242206Z 29007G13KT 26/M07 A3009 RMK A01 T02551070  RH  011%=      5-min Rain = 0
KVA1 242207Z 30013KT 26/M07 A3009 RMK A01 T02581068  RH  011%=      5-min Rain = 0
KVA1 242208Z 31008KT 26/M07 A3008 RMK A01 T02561070  RH  011%=      5-min Rain = 0
KVA1 242209Z 30008KT 26/M07 A3008 RMK A01 T02561069  RH  011%=      5-min Rain = 0
KVA1 242210Z 30009G15KT 26/M07 A3009 RMK A01 T02561068  RH  011%=      5-min Rain = 0
KVA1 242211Z 30009KT 26/M07 A3008 RMK A01 T02561070  RH  011%=      5-min Rain = 0
KVA1 242212Z 28011KT 26/M07 A3009 RMK A01 T02561069  RH  011%=      5-min Rain = 0
KVA1 242213Z 28011KT 26/M07 A3009 RMK A01 T02571067  RH  011%=      5-min Rain = 0
KVA1 242214Z 29013KT 26/M07 A3008 RMK A01 T02581069  RH  011%=      5-min Rain = 0
KVA1 242215Z 29013KT 26/M07 A3009 RMK A01 T02571070  RH  011%=      5-min Rain = 0
KVA1 242216Z 30013KT 26/M07 A3009 RMK A01 T02581070  RH  011%=      5-min Rain = 0
KVA1 242217Z 27008KT 26/M07 A3009 RMK A01 T02571071  RH  011%=      5-min Rain = 0
KVA1 242218Z 28011KT 26/M07 A3008 RMK A01 T02581070  RH  011%=      5-min Rain = 0
KVA1 242219Z 26007KT 26/M07 A3009 RMK A01 T02591070  RH  011%=      5-min Rain = 0
KVA1 242220Z 24007KT 26/M07 A3008 RMK A01 T02611070  RH  011%=      5-min Rain = 0
KVA1 242221Z 24007KT 26/M07 A3008 RMK A01 T02611070  RH  011%=      5-min Rain = 0
KVA1 242222Z 23006KT 26/M07 A3008 RMK A01 T02611070  RH  011%=      5-min Rain = 0
KVA1 242223Z 24007KT 26/M07 A3008 RMK A01 T02641069  RH  011%=      5-min Rain = 0
KVA1 242224Z 26003KT 26/M07 A3008 RMK A01 T02641070  RH  010%=      5-min Rain = 0
KVA1 242225Z 25004KT 27/M07 A3008 RMK A01 T02651071  RH  010%=      5-min Rain = 0
KVA1 242226Z 27007KT 26/M07 A3008 RMK A01 T02641070  RH  010%=      5-min Rain = 0
KVA1 242227Z 27006KT 26/M07 A3008 RMK A01 T02641073  RH  010%=      5-min Rain = 0
KVA1 242228Z 26007KT 26/M08 A3008 RMK A01 T02601076  RH  010%=      5-min Rain = 0
KVA1 242229Z 24007G14KT 26/M07 A3008 RMK A01 T02581074  RH  011%=      5-min Rain = 0
KVA1 242230Z 22012G17KT 26/M07 A3008 RMK A01 T02601074  RH  010%=      5-min Rain = 0
KVA1 242231Z 21010KT 26/M07 A3008 RMK A01 T02611073  RH  010%=      5-min Rain = 0
KVA1 242232Z 24009KT 26/M07 A3008 RMK A01 T02611074  RH  010%=      5-min Rain = 0
KVA1 242233Z 24009KT 26/M08 A3008 RMK A01 T02601075  RH  010%=      5-min Rain = 0
KVA1 242234Z 25007KT 26/M08 A3008 RMK A01 T02601075  RH  010%=      5-min Rain = 0
KVA1 242235Z 26008KT 26/M07 A3008 RMK A01 T02621074  RH  010%=      5-min Rain = 0
KVA1 242236Z 25008KT 26/M08 A3008 RMK A01 T02621075  RH  010%=      5-min Rain = 0
KVA1 242237Z 25013KT 26/M08 A3008 RMK A01 T02611076  RH  010%=      5-min Rain = 0
KVA1 242238Z 26011KT 26/M08 A3008 RMK A01 T02611076  RH  010%=      5-min Rain = 0
KVA1 242239Z 26013G18KT 26/M08 A3008 RMK A01 T02621075  RH  010%=      5-min Rain = 0
KVA1 242240Z 28018G23KT 26/M08 A3008 RMK A01 T02621077  RH  010%=      5-min Rain = 0
KVA1 242241Z 28017KT 26/M08 A3008 RMK A01 T02611078  RH  010%=      5-min Rain = 0
KVA1 242242Z 28016G21KT 26/M08 A3008 RMK A01 T02581080  RH  010%=      5-min Rain = 0
KVA1 242243Z 29015KT 26/M08 A3008 RMK A01 T02561080  RH  010%=      5-min Rain = 0
KVA1 242244Z 29017KT 26/M08 A3008 RMK A01 T02571079  RH  010%=      5-min Rain = 0
KVA1 242245Z 29016KT 26/M08 A3008 RMK A01 T02571080  RH  010%=      5-min Rain = 0
KVA1 242246Z 30014KT 26/M08 A3008 RMK A01 T02571079  RH  010%=      5-min Rain = 0
KVA1 242247Z 29013KT 26/M08 A3008 RMK A01 T02591080  RH  010%=      5-min Rain = 0
KVA1 242248Z 29015G22KT 26/M08 A3008 RMK A01 T02611080  RH  010%=      5-min Rain = 0
KVA1 242249Z 29015G20KT 26/M08 A3008 RMK A01 T02601081  RH  010%=      5-min Rain = 0
KVA1 242250Z 28015KT 26/M08 A3008 RMK A01 T02581082  RH  010%=      5-min Rain = 0
KVA1 242251Z 27012KT 26/M08 A3008 RMK A01 T02561082  RH  010%=      5-min Rain = 0
KVA1 242252Z 28008G13KT 26/M08 A3008 RMK A01 T02551083  RH  010%=      5-min Rain = 0
KVA1 242253Z 26007KT 25/M08 A3008 RMK A01 T02541082  RH  010%=      5-min Rain = 0
KVA1 242254Z 24009KT 26/M08 A3008 RMK A01 T02561081  RH  010%=      5-min Rain = 0
KVA1 242255Z 25010KT 26/M08 A3008 RMK A01 T02561082  RH  010%=      5-min Rain = 0
KVA1 242256Z 26006KT 26/M08 A3008 RMK A01 T02561082  RH  010%=      5-min Rain = 0
KVA1 242257Z 25006KT 26/M08 A3008 RMK A01 T02551083  RH  010%=      5-min Rain = 0
KVA1 242258Z 26009KT 26/M08 A3008 RMK A01 T02561080  RH  010%=      5-min Rain = 0
KVA1 242259Z 27013G18KT 26/M08 A3008 RMK A01 T02591080  RH  010%=      5-min Rain = 0
KVA1 242300Z 28015KT 26/M08 A3008 RMK A01 T02601082  RH  010%=      5-min Rain = 0
KVA1 242301Z 27010KT 26/M08 A3008 RMK A01 T02581082  RH  010%=      5-min Rain = 0
KVA1 242302Z 27008KT 26/M08 A3008 RMK A01 T02581082  RH  010%=      5-min Rain = 0
KVA1 242303Z 25011KT 26/M08 A3008 RMK A01 T02571083  RH  010%=      5-min Rain = 0
KVA1 242304Z 25010G15KT 26/M08 A3008 RMK A01 T02581081  RH  010%=      5-min Rain = 0
KVA1 242305Z 28012G17KT 26/M08 A3008 RMK A01 T02591081  RH  010%=      5-min Rain = 0
KVA1 242306Z 29014KT 26/M08 A3008 RMK A01 T02581082  RH  010%=      5-min Rain = 0
KVA1 242307Z 29013KT 26/M08 A3008 RMK A01 T02561083  RH  010%=      5-min Rain = 0
KVA1 242308Z 29011KT 25/M08 A3009 RMK A01 T02541083  RH  010%=      5-min Rain = 0
KVA1 242309Z 27006KT 26/M08 A3008 RMK A01 T02551083  RH  010%=      5-min Rain = 0
KVA1 242310Z 28008G13KT 25/M08 A3008 RMK A01 T02541082  RH  010%=      5-min Rain = 0
KVA1 242311Z 28009KT 25/M08 A3008 RMK A01 T02531082  RH  010%=      5-min Rain = 0
KVA1 242312Z 29012G18KT 25/M08 A3008 RMK A01 T02541083  RH  010%=      5-min Rain = 0
KVA1 242313Z 29016KT 25/M09 A3008 RMK A01 T02541087  RH  010%=      5-min Rain = 0
KVA1 242314Z 29014G20KT 25/M09 A3008 RMK A01 T02531088  RH  010%=      5-min Rain = 0
KVA1 242315Z 29013KT 25/M09 A3008 RMK A01 T02521088  RH  010%=      5-min Rain = 0
KVA1 242316Z 29012KT 25/M09 A3009 RMK A01 T02521087  RH  010%=      5-min Rain = 0
KVA1 242317Z 28014KT 25/M09 A3009 RMK A01 T02521088  RH  010%=      5-min Rain = 0
KVA1 242318Z 29011KT 25/M09 A3009 RMK A01 T02501089  RH  010%=      5-min Rain = 0
KVA1 242319Z 28010KT 25/M09 A3008 RMK A01 T02491088  RH  010%=      5-min Rain = 0
KVA1 242320Z 30011KT 25/M09 A3009 RMK A01 T02481088  RH  010%=      5-min Rain = 0
KVA1 242321Z 29012KT 25/M09 A3009 RMK A01 T02501091  RH  010%=      5-min Rain = 0
KVA1 242322Z 29015KT 25/M09 A3009 RMK A01 T02491091  RH  010%=      5-min Rain = 0
KVA1 242323Z 29011KT 25/M09 A3009 RMK A01 T02491089  RH  010%=      5-min Rain = 0
KVA1 242324Z 30014KT 25/M09 A3009 RMK A01 T02481089  RH  010%=      5-min Rain = 0
KVA1 242325Z 30013G18KT 25/M09 A3009 RMK A01 T02481088  RH  010%=      5-min Rain = 0
KVA1 242326Z 31014KT 25/M09 A3009 RMK A01 T02481092  RH  010%=      5-min Rain = 0
KVA1 242327Z 30011KT 25/M09 A3009 RMK A01 T02471091  RH  010%=      5-min Rain = 0
KVA1 242328Z 29012KT 25/M09 A3009 RMK A01 T02471091  RH  010%=      5-min Rain = 0
KVA1 242329Z 28012KT 25/M09 A3009 RMK A01 T02471093  RH  010%=      5-min Rain = 0
KVA1 242330Z 28010KT 25/M09 A3009 RMK A01 T02481094  RH  010%=      5-min Rain = 0
KVA1 242331Z 26013G18KT 25/M09 A3009 RMK A01 T02481093  RH  010%=      5-min Rain = 0
KVA1 242332Z 26011KT 25/M09 A3009 RMK A01 T02491094  RH  010%=      5-min Rain = 0
KVA1 242333Z 25013KT 25/M09 A3009 RMK A01 T02491094  RH  010%=      5-min Rain = 0
KVA1 242334Z 27012KT 25/M10 A3009 RMK A01 T02501095  RH  009%=      5-min Rain = 0
KVA1 242335Z 29011KT 25/M10 A3009 RMK A01 T02501095  RH  009%=      5-min Rain = 0
KVA1 242336Z 28012KT 25/M10 A3009 RMK A01 T02501097  RH  009%=      5-min Rain = 0
KVA1 242337Z 28015KT 25/M10 A3009 RMK A01 T02501099  RH  009%=      5-min Rain = 0
KVA1 242338Z 27013KT 25/M10 A3009 RMK A01 T02501103  RH  009%=      5-min Rain = 0
KVA1 242339Z 27011KT 25/M11 A301 RMK A01 T02491107  RH  009%=      5-min Rain = 0
KVA1 242340Z 26011KT 25/M11 A3009 RMK A01 T02481109  RH  009%=      5-min Rain = 0
KVA1 242341Z 26015KT 25/M11 A301 RMK A01 T02471106  RH  009%=      5-min Rain = 0
KVA1 242342Z 26011KT 25/M10 A3009 RMK A01 T02461102  RH  009%=      5-min Rain = 0
KVA1 242343Z 27008KT 25/M10 A301 RMK A01 T02451101  RH  009%=      5-min Rain = 0
KVA1 242344Z 26011KT 25/M10 A301 RMK A01 T02461100  RH  009%=      5-min Rain = 0
KVA1 242345Z 26014KT 25/M10 A301 RMK A01 T02471099  RH  009%=      5-min Rain = 0
KVA1 242346Z 26011G16KT 25/M10 A301 RMK A01 T02471099  RH  009%=      5-min Rain = 0
KVA1 242347Z 28009G15KT 25/M10 A301 RMK A01 T02461099  RH  009%=      5-min Rain = 0
KVA1 242348Z 29014KT 25/M10 A301 RMK A01 T02461098  RH  009%=      5-min Rain = 0
KVA1 242349Z 29011KT 25/M10 A301 RMK A01 T02461100  RH  009%=      5-min Rain = 0
KVA1 242350Z 28010KT 24/M10 A301 RMK A01 T02441100  RH  009%=      5-min Rain = 0
KVA1 242351Z 28011KT 24/M10 A301 RMK A01 T02441099  RH  009%=      5-min Rain = 0
KVA1 242352Z 29010KT 24/M10 A301 RMK A01 T02441100  RH  009%=      5-min Rain = 0
KVA1 242353Z 29008KT 24/M10 A301 RMK A01 T02431101  RH  009%=      5-min Rain = 0
KVA1 242354Z 27008KT 24/M10 A301 RMK A01 T02431101  RH  009%=      5-min Rain = 0
KVA1 242355Z 28009KT 24/M10 A301 RMK A01 T02431100  RH  009%=      5-min Rain = 0
KVA1 242356Z 29009KT 24/M10 A301 RMK A01 T02421101  RH  009%=      5-min Rain = 0
KVA1 242357Z 30010G15KT 24/M10 A301 RMK A01 T02431101  RH  009%=      5-min Rain = 0
KVA1 242358Z 31011KT 25/M10 A301 RMK A01 T02451101  RH  009%=      5-min Rain = 0
KVA1 242359Z 30012KT 25/M10 A301 RMK A01 T02451101  RH  009%=      5-min Rain = 0
KVA1 250000Z 30012KT 24/M10 A301 RMK A01 T02441103  RH  009%=      5-min Rain = 0
KVA1 250001Z 29012KT 24/M10 A301 RMK A01 T02431103  RH  009%=      5-min Rain = 0
KVA1 250002Z 27011G17KT 24/M10 A301 RMK A01 T02421103  RH  009%=      5-min Rain = 0
KVA1 250003Z 29013KT 24/M10 A301 RMK A01 T02421103  RH  009%=      5-min Rain = 0
KVA1 250004Z 30009KT 24/M10 A301 RMK A01 T02421103  RH  009%=      5-min Rain = 0
KVA1 250005Z 31009KT 24/M10 A301 RMK A01 T02421103  RH  009%=      5-min Rain = 0
KVA1 250006Z 31008KT 24/M10 A301 RMK A01 T02431104  RH  009%=      5-min Rain = 0
KVA1 250007Z 30009KT 24/M10 A301 RMK A01 T02431104  RH  009%=      5-min Rain = 0
KVA1 250008Z 29008KT 24/M10 A301 RMK A01 T02441103  RH  009%=      5-min Rain = 0
KVA1 250009Z 28008G13KT 24/M10 A301 RMK A01 T02441101  RH  009%=      5-min Rain = 0
KVA1 250010Z 30010KT 24/M10 A3011 RMK A01 T02431101  RH  009%=      5-min Rain = 0
KVA1 250011Z 29011KT 24/M10 A3011 RMK A01 T02421100  RH  009%=      5-min Rain = 0
KVA1 250012Z 29014KT 24/M10 A3011 RMK A01 T02421099  RH  010%=      5-min Rain = 0
KVA1 250013Z 28012KT 24/M10 A3011 RMK A01 T02411100  RH  010%=      5-min Rain = 0
KVA1 250014Z 28010KT 24/M10 A3011 RMK A01 T02401099  RH  010%=      5-min Rain = 0
KVA1 250015Z 28013KT 24/M10 A3011 RMK A01 T02401098  RH  010%=      5-min Rain = 0
KVA1 250016Z 29009KT 24/M10 A3011 RMK A01 T02391096  RH  010%=      5-min Rain = 0
KVA1 250017Z 28010KT 24/M10 A3011 RMK A01 T02391095  RH  010%=      5-min Rain = 0
KVA1 250018Z 28010KT 24/M09 A3011 RMK A01 T02391093  RH  010%=      5-min Rain = 0
KVA1 250019Z 28011KT 24/M09 A3011 RMK A01 T02381093  RH  010%=      5-min Rain = 0
KVA1 250020Z 28012KT 24/M09 A3011 RMK A01 T02371092  RH  010%=      5-min Rain = 0
KVA1 250021Z 29010KT 24/M09 A3011 RMK A01 T02361091  RH  011%=      5-min Rain = 0
KVA1 250022Z 29010KT 24/M09 A3011 RMK A01 T02361091  RH  011%=      5-min Rain = 0
KVA1 250023Z 28011KT 24/M09 A3011 RMK A01 T02361091  RH  011%=      5-min Rain = 0
KVA1 250024Z 28011KT 24/M09 A3011 RMK A01 T02371092  RH  010%=      5-min Rain = 0
KVA1 250025Z 30012KT 24/M09 A3011 RMK A01 T02371092  RH  010%=      5-min Rain = 0
KVA1 250026Z 30009KT 24/M09 A3011 RMK A01 T02361093  RH  010%=      5-min Rain = 0
KVA1 250027Z 30009KT 24/M09 A3011 RMK A01 T02361092  RH  010%=      5-min Rain = 0
KVA1 250028Z 30012KT 24/M09 A3011 RMK A01 T02351092  RH  011%=      5-min Rain = 0
KVA1 250029Z 28010KT 24/M09 A3011 RMK A01 T02351092  RH  011%=      5-min Rain = 0
KVA1 250030Z 29010KT 24/M09 A3011 RMK A01 T02351092  RH  011%=      5-min Rain = 0
KVA1 250031Z 29009KT 23/M09 A3011 RMK A01 T02341093  RH  011%=      5-min Rain = 0
KVA1 250032Z 29009KT 23/M09 A3012 RMK A01 T02331093  RH  011%=      5-min Rain = 0
KVA1 250033Z 29010KT 23/M09 A3012 RMK A01 T02331094  RH  011%=      5-min Rain = 0
KVA1 250034Z 29011KT 23/M09 A3012 RMK A01 T02331093  RH  011%=      5-min Rain = 0
KVA1 250035Z 29014KT 23/M09 A3012 RMK A01 T02321093  RH  011%=      5-min Rain = 0
KVA1 250036Z 29014KT 23/M09 A3012 RMK A01 T02321093  RH  011%=      5-min Rain = 0
KVA1 250037Z 29015KT 23/M09 A3012 RMK A01 T02321093  RH  011%=      5-min Rain = 0
KVA1 250038Z 28010KT 23/M09 A3012 RMK A01 T02321094  RH  011%=      5-min Rain = 0
KVA1 250039Z 29009KT 23/M09 A3012 RMK A01 T02321094  RH  011%=      5-min Rain = 0
KVA1 250040Z 28012KT 23/M09 A3012 RMK A01 T02321094  RH  011%=      5-min Rain = 0
KVA1 250041Z 29011KT 23/M10 A3012 RMK A01 T02321095  RH  011%=      5-min Rain = 0
KVA1 250042Z 29011KT 23/M10 A3012 RMK A01 T02321096  RH  010%=      5-min Rain = 0
KVA1 250043Z 30009KT 23/M10 A3012 RMK A01 T02311096  RH  010%=      5-min Rain = 0
KVA1 250044Z 29008KT 23/M10 A3012 RMK A01 T02301097  RH  010%=      5-min Rain = 0
KVA1 250045Z 30009KT 23/M10 A3012 RMK A01 T02301097  RH  010%=      5-min Rain = 0
KVA1 250046Z 30011KT 23/M10 A3012 RMK A01 T02291098  RH  010%=      5-min Rain = 0
KVA1 250047Z 30009KT 23/M10 A3012 RMK A01 T02291098  RH  010%=      5-min Rain = 0
KVA1 250048Z 30013KT 23/M10 A3012 RMK A01 T02281098  RH  010%=      5-min Rain = 0
KVA1 250049Z 31012KT 23/M10 A3012 RMK A01 T02281098  RH  010%=      5-min Rain = 0
KVA1 250050Z 31010KT 23/M10 A3012 RMK A01 T02271099  RH  010%=      5-min Rain = 0
KVA1 250051Z 30011KT 23/M10 A3012 RMK A01 T02271099  RH  011%=      5-min Rain = 0
KVA1 250052Z 29009KT 23/M10 A3012 RMK A01 T02261099  RH  011%=      5-min Rain = 0
KVA1 250053Z 30009KT 23/M10 A3012 RMK A01 T02261099  RH  011%=      5-min Rain = 0
KVA1 250054Z 30008KT 23/M10 A3012 RMK A01 T02261099  RH  011%=      5-min Rain = 0
KVA1 250055Z 30008KT 23/M10 A3012 RMK A01 T02251099  RH  011%=      5-min Rain = 0
KVA1 250056Z 30009KT 23/M10 A3012 RMK A01 T02261098  RH  011%=      5-min Rain = 0
KVA1 250057Z 30009KT 23/M10 A3012 RMK A01 T02251097  RH  011%=      5-min Rain = 0
KVA1 250058Z 30011KT 23/M10 A3012 RMK A01 T02251097  RH  011%=      5-min Rain = 0
KVA1 250059Z 30010KT 22/M10 A3012 RMK A01 T02241097  RH  011%=      5-min Rain = 0
KVA1 250100Z 31007KT 22/M10 A3012 RMK A01 T02241096  RH  011%=      5-min Rain = 0
KVA1 250101Z 31006KT 22/M10 A3012 RMK A01 T02241096  RH  011%=      5-min Rain = 0
KVA1 250102Z 30007KT 22/M10 A3012 RMK A01 T02231097  RH  011%=      5-min Rain = 0
KVA1 250103Z 30008KT 22/M10 A3012 RMK A01 T02221098  RH  011%=      5-min Rain = 0
KVA1 250104Z 32009KT 22/M10 A3012 RMK A01 T02221097  RH  011%=      5-min Rain = 0
KVA1 250105Z 31008KT 22/M10 A3012 RMK A01 T02211097  RH  011%=      5-min Rain = 0
KVA1 250106Z 30007KT 22/M10 A3012 RMK A01 T02211097  RH  011%=      5-min Rain = 0
KVA1 250107Z 30007KT 22/M10 A3012 RMK A01 T02201096  RH  011%=      5-min Rain = 0
KVA1 250108Z 31006KT 22/M10 A3012 RMK A01 T02201096  RH  011%=      5-min Rain = 0
KVA1 250109Z 31007KT 22/M10 A3012 RMK A01 T02181096  RH  011%=      5-min Rain = 0
KVA1 250110Z 31009KT 22/M10 A3012 RMK A01 T02181096  RH  011%=      5-min Rain = 0
KVA1 250111Z 31010KT 22/M09 A3012 RMK A01 T02171094  RH  012%=      5-min Rain = 0
KVA1 250112Z 31009KT 22/M09 A3012 RMK A01 T02181092  RH  012%=      5-min Rain = 0
KVA1 250113Z 30008KT 22/M09 A3012 RMK A01 T02181091  RH  012%=      5-min Rain = 0
KVA1 250114Z 31007KT 22/M09 A3012 RMK A01 T02171091  RH  012%=      5-min Rain = 0
KVA1 250115Z 31008KT 22/M09 A3012 RMK A01 T02171090  RH  012%=      5-min Rain = 0
KVA1 250116Z 31007KT 22/M09 A3012 RMK A01 T02171089  RH  012%=      5-min Rain = 0
KVA1 250117Z 31007KT 22/M09 A3012 RMK A01 T02171089  RH  012%=      5-min Rain = 0
KVA1 250118Z 31006KT 22/M09 A3012 RMK A01 T02161089  RH  012%=      5-min Rain = 0
KVA1 250119Z 31006KT 22/M09 A3012 RMK A01 T02161089  RH  012%=      5-min Rain = 0
KVA1 250120Z 32006KT 22/M09 A3012 RMK A01 T02161088  RH  012%=      5-min Rain = 0
KVA1 250121Z 32006KT 22/M09 A3012 RMK A01 T02151088  RH  012%=      5-min Rain = 0
KVA1 250122Z 32006KT 21/M09 A3012 RMK A01 T02141088  RH  012%=      5-min Rain = 0
KVA1 250123Z 31008KT 21/M09 A3012 RMK A01 T02141086  RH  013%=      5-min Rain = 0
KVA1 250124Z 32007KT 21/M09 A3012 RMK A01 T02141085  RH  013%=      5-min Rain = 0
KVA1 250125Z 31008KT 21/M09 A3012 RMK A01 T02141085  RH  013%=      5-min Rain = 0
KVA1 250126Z 31006KT 21/M09 A3012 RMK A01 T02141085  RH  013%=      5-min Rain = 0
KVA1 250127Z 31007KT 21/M09 A3012 RMK A01 T02131085  RH  013%=      5-min Rain = 0
KVA1 250128Z 31007KT 21/M08 A3012 RMK A01 T02121084  RH  013%=      5-min Rain = 0
KVA1 250129Z 31007KT 21/M08 A3012 RMK A01 T02121084  RH  013%=      5-min Rain = 0
KVA1 250130Z 31007KT 21/M08 A3012 RMK A01 T02121083  RH  013%=      5-min Rain = 0
KVA1 250131Z 31008KT 21/M08 A3012 RMK A01 T02111083  RH  013%=      5-min Rain = 0
KVA1 250132Z 31008KT 21/M08 A3012 RMK A01 T02111083  RH  013%=      5-min Rain = 0
KVA1 250133Z 32008KT 21/M08 A3012 RMK A01 T02111082  RH  013%=      5-min Rain = 0
KVA1 250134Z 32008KT 21/M08 A3012 RMK A01 T02131081  RH  013%=      5-min Rain = 0
KVA1 250135Z 32007KT 21/M08 A3012 RMK A01 T02121081  RH  013%=      5-min Rain = 0
KVA1 250136Z 32006KT 21/M08 A3012 RMK A01 T02121081  RH  013%=      5-min Rain = 0
KVA1 250137Z 32006KT 21/M08 A3012 RMK A01 T02121080  RH  013%=      5-min Rain = 0
KVA1 250138Z 32006KT 21/M08 A3012 RMK A01 T02121080  RH  013%=      5-min Rain = 0
KVA1 250139Z 32005KT 21/M08 A3012 RMK A01 T02111079  RH  013%=      5-min Rain = 0
KVA1 250140Z 32006KT 21/M08 A3012 RMK A01 T02101080  RH  013%=      5-min Rain = 0
KVA1 250141Z 33005KT 21/M08 A3012 RMK A01 T02101080  RH  014%=      5-min Rain = 0
KVA1 250142Z 33005KT 21/M08 A3012 RMK A01 T02091079  RH  014%=      5-min Rain = 0
KVA1 250143Z 34005KT 21/M08 A3013 RMK A01 T02081079  RH  014%=      5-min Rain = 0
KVA1 250144Z 33004KT 21/M08 A3013 RMK A01 T02071080  RH  014%=      5-min Rain = 0
KVA1 250145Z 33004KT 21/M08 A3013 RMK A01 T02071079  RH  014%=      5-min Rain = 0
KVA1 250146Z 34003KT 21/M08 A3013 RMK A01 T02071079  RH  014%=      5-min Rain = 0
KVA1 250147Z 32003KT 21/M08 A3013 RMK A01 T02061079  RH  014%=      5-min Rain = 0
KVA1 250148Z 33003KT 21/M08 A3013 RMK A01 T02061079  RH  014%=      5-min Rain = 0
KVA1 250149Z 33002KT 21/M08 A3013 RMK A01 T02051080  RH  014%=      5-min Rain = 0
KVA1 250150Z 32002KT 21/M08 A3013 RMK A01 T02051080  RH  014%=      5-min Rain = 0
KVA1 250151Z 34001KT 20/M08 A3013 RMK A01 T02041080  RH  014%=      5-min Rain = 0
KVA1 250152Z 35000KT 20/M08 A3013 RMK A01 T02031080  RH  014%=      5-min Rain = 0
KVA1 250153Z 31002KT 20/M08 A3013 RMK A01 T02021080  RH  014%=      5-min Rain = 0
KVA1 250154Z 32002KT 20/M08 A3013 RMK A01 T02021079  RH  014%=      5-min Rain = 0
KVA1 250155Z 32002KT 20/M08 A3013 RMK A01 T02021079  RH  014%=      5-min Rain = 0
KVA1 250156Z 30001KT 20/M08 A3013 RMK A01 T02021079  RH  014%=      5-min Rain = 0
KVA1 250157Z 28001KT 20/M08 A3013 RMK A01 T02011079  RH  014%=      5-min Rain = 0
KVA1 250158Z 28001KT 20/M08 A3013 RMK A01 T02001079  RH  014%=      5-min Rain = 0
KVA1 250159Z 24000KT 20/M08 A3014 RMK A01 T01991080  RH  014%=      5-min Rain = 0
KVA1 250200Z 18000KT 20/M08 A3014 RMK A01 T01981080  RH  015%=      5-min Rain = 0
KVA1 250201Z 18000KT 20/M08 A3014 RMK A01 T01971081  RH  015%=      5-min Rain = 0
KVA1 250202Z 00000KT 20/M08 A3014 RMK A01 T01961081  RH  015%=      5-min Rain = 0
KVA1 250203Z 00000KT 19/M08 A3014 RMK A01 T01941080  RH  015%=      5-min Rain = 0
KVA1 250204Z 00000KT 19/M08 A3014 RMK A01 T01941080  RH  015%=      5-min Rain = 0
KVA1 250205Z 19000KT 19/M08 A3014 RMK A01 T01931081  RH  015%=      5-min Rain = 0
KVA1 250206Z 20002KT 19/M08 A3014 RMK A01 T01911081  RH  015%=      5-min Rain = 0
KVA1 250207Z 19003KT 19/M08 A3014 RMK A01 T01891081  RH  015%=      5-min Rain = 0
KVA1 250208Z 19003KT 19/M08 A3014 RMK A01 T01881081  RH  015%=      5-min Rain = 0
KVA1 250209Z 20005KT 19/M08 A3014 RMK A01 T01871081  RH  015%=      5-min Rain = 0
KVA1 250210Z 20004KT 19/M08 A3014 RMK A01 T01861081  RH  015%=      5-min Rain = 0
KVA1 250211Z 20004KT 19/M08 A3014 RMK A01 T01851082  RH  015%=      5-min Rain = 0
KVA1 250212Z 22004KT 18/M08 A3014 RMK A01 T01841082  RH  016%=      5-min Rain = 0
KVA1 250213Z 21003KT 18/M08 A3014 RMK A01 T01821083  RH  016%=      5-min Rain = 0
KVA1 250214Z 20003KT 18/M08 A3014 RMK A01 T01811083  RH  016%=      5-min Rain = 0
KVA1 250215Z 20003KT 18/M08 A3015 RMK A01 T01801083  RH  016%=      5-min Rain = 0
KVA1 250216Z 20003KT 18/M08 A3015 RMK A01 T01791084  RH  016%=      5-min Rain = 0
KVA1 250217Z 21003KT 18/M08 A3015 RMK A01 T01791084  RH  016%=      5-min Rain = 0
KVA1 250218Z 21003KT 18/M08 A3015 RMK A01 T01781084  RH  016%=      5-min Rain = 0
KVA1 250219Z 21003KT 18/M08 A3015 RMK A01 T01781084  RH  016%=      5-min Rain = 0
KVA1 250220Z 21003KT 18/M08 A3015 RMK A01 T01771084  RH  016%=      5-min Rain = 0
KVA1 250221Z 21003KT 18/M08 A3015 RMK A01 T01771084  RH  016%=      5-min Rain = 0
KVA1 250222Z 21003KT 18/M08 A3015 RMK A01 T01761084  RH  016%=      5-min Rain = 0
KVA1 250223Z 21002KT 18/M08 A3015 RMK A01 T01761084  RH  016%=      5-min Rain = 0
KVA1 250224Z 21002KT 18/M08 A3015 RMK A01 T01781083  RH  016%=      5-min Rain = 0
KVA1 250225Z 21002KT 18/M08 A3015 RMK A01 T01801082  RH  016%=      5-min Rain = 0
KVA1 250226Z 20002KT 18/M08 A3015 RMK A01 T01811082  RH  016%=      5-min Rain = 0
KVA1 250227Z 21002KT 18/M08 A3015 RMK A01 T01831082  RH  016%=      5-min Rain = 0
KVA1 250228Z 22002KT 18/M08 A3015 RMK A01 T01821083  RH  016%=      5-min Rain = 0
KVA1 250229Z 21002KT 18/M08 A3015 RMK A01 T01811083  RH  016%=      5-min Rain = 0
KVA1 250230Z 20002KT 18/M08 A3015 RMK A01 T01811082  RH  016%=      5-min Rain = 0
KVA1 250231Z 22002KT 18/M08 A3015 RMK A01 T01811082  RH  016%=      5-min Rain = 0
KVA1 250232Z 22002KT 18/M08 A3015 RMK A01 T01811083  RH  016%=      5-min Rain = 0
KVA1 250233Z 22003KT 18/M08 A3015 RMK A01 T01801082  RH  016%=      5-min Rain = 0
KVA1 250234Z 22003KT 18/M08 A3015 RMK A01 T01811082  RH  016%=      5-min Rain = 0
KVA1 250235Z 23003KT 18/M08 A3015 RMK A01 T01811082  RH  016%=      5-min Rain = 0
KVA1 250236Z 24003KT 18/M08 A3015 RMK A01 T01801083  RH  016%=      5-min Rain = 0
KVA1 250237Z 24003KT 18/M08 A3015 RMK A01 T01811082  RH  016%=      5-min Rain = 0
KVA1 250238Z 25003KT 18/M08 A3015 RMK A01 T01821082  RH  016%=      5-min Rain = 0
KVA1 250239Z 24003KT 18/M08 A3015 RMK A01 T01821082  RH  016%=      5-min Rain = 0
KVA1 250240Z 23003KT 18/M08 A3015 RMK A01 T01811082  RH  016%=      5-min Rain = 0
KVA1 250241Z 22003KT 18/M08 A3015 RMK A01 T01801083  RH  016%=      5-min Rain = 0
KVA1 250242Z 22003KT 18/M08 A3015 RMK A01 T01781083  RH  016%=      5-min Rain = 0
KVA1 250243Z 22003KT 18/M08 A3015 RMK A01 T01771084  RH  016%=      5-min Rain = 0
KVA1 250244Z 23003KT 18/M08 A3015 RMK A01 T01761083  RH  016%=      5-min Rain = 0
KVA1 250245Z 22003KT 18/M08 A3016 RMK A01 T01771082  RH  016%=      5-min Rain = 0
KVA1 250246Z 23003KT 18/M08 A3016 RMK A01 T01771083  RH  016%=      5-min Rain = 0
KVA1 250247Z 22003KT 18/M08 A3016 RMK A01 T01761084  RH  016%=      5-min Rain = 0
KVA1 250248Z 23002KT 18/M08 A3016 RMK A01 T01751084  RH  016%=      5-min Rain = 0
KVA1 250249Z 23001KT 17/M08 A3016 RMK A01 T01741084  RH  016%=      5-min Rain = 0
KVA1 250250Z 22001KT 17/M08 A3016 RMK A01 T01721084  RH  017%=      5-min Rain = 0
KVA1 250251Z 24001KT 17/M08 A3016 RMK A01 T01711083  RH  017%=      5-min Rain = 0
KVA1 250252Z 24002KT 17/M08 A3016 RMK A01 T01721082  RH  017%=      5-min Rain = 0
KVA1 250253Z 24002KT 17/M08 A3016 RMK A01 T01721081  RH  017%=      5-min Rain = 0
KVA1 250254Z 24003KT 17/M08 A3016 RMK A01 T01731081  RH  017%=      5-min Rain = 0
KVA1 250255Z 24003KT 17/M08 A3016 RMK A01 T01731082  RH  017%=      5-min Rain = 0
KVA1 250256Z 24003KT 17/M08 A3016 RMK A01 T01721082  RH  017%=      5-min Rain = 0
KVA1 250257Z 24003KT 17/M08 A3016 RMK A01 T01711083  RH  017%=      5-min Rain = 0
KVA1 250258Z 24003KT 17/M09 A3016 RMK A01 T01681085  RH  017%=      5-min Rain = 0
KVA1 250259Z 24004KT 17/M09 A3016 RMK A01 T01651086  RH  017%=      5-min Rain = 0
KVA1 250300Z 25003KT 16/M09 A3016 RMK A01 T01621086  RH  017%=      5-min Rain = 0
KVA1 250301Z 27004KT 16/M09 A3016 RMK A01 T01591088  RH  017%=      5-min Rain = 0
KVA1 250302Z 26004KT 15/M09 A3016 RMK A01 T01541091  RH  018%=      5-min Rain = 0
KVA1 250303Z 27004KT 15/M09 A3016 RMK A01 T01491092  RH  018%=      5-min Rain = 0
KVA1 250304Z 27004KT 15/M09 A3016 RMK A01 T01461092  RH  018%=      5-min Rain = 0
KVA1 250305Z 28004KT 14/M09 A3016 RMK A01 T01441092  RH  019%=      5-min Rain = 0
KVA1 250306Z 28004KT 14/M09 A3016 RMK A01 T01431090  RH  019%=      5-min Rain = 0
KVA1 250307Z 28004KT 14/M09 A3016 RMK A01 T01431090  RH  019%=      5-min Rain = 0
KVA1 250308Z 29005KT 14/M09 A3016 RMK A01 T01421090  RH  019%=      5-min Rain = 0
KVA1 250309Z 28004KT 14/M09 A3016 RMK A01 T01411089  RH  019%=      5-min Rain = 0
KVA1 250310Z 28004KT 14/M09 A3016 RMK A01 T01401089  RH  019%=      5-min Rain = 0
KVA1 250311Z 31003KT 14/M09 A3017 RMK A01 T01391091  RH  019%=      5-min Rain = 0
KVA1 250312Z 31005KT 14/M09 A3017 RMK A01 T01371091  RH  020%=      5-min Rain = 0
KVA1 250313Z 29005KT 14/M09 A3017 RMK A01 T01351092  RH  020%=      5-min Rain = 0
KVA1 250314Z 28004KT 13/M09 A3017 RMK A01 T01341091  RH  020%=      5-min Rain = 0
KVA1 250315Z 29004KT 13/M09 A3017 RMK A01 T01341091  RH  020%=      5-min Rain = 0
KVA1 250316Z 29004KT 13/M09 A3017 RMK A01 T01331091  RH  020%=      5-min Rain = 0
KVA1 250317Z 29005KT 13/M09 A3017 RMK A01 T01331090  RH  020%=      5-min Rain = 0
KVA1 250318Z 30005KT 13/M09 A3017 RMK A01 T01331090  RH  020%=      5-min Rain = 0
KVA1 250319Z 27004KT 13/M09 A3017 RMK A01 T01341089  RH  020%=      5-min Rain = 0
KVA1 250320Z 28005KT 14/M09 A3017 RMK A01 T01351089  RH  020%=      5-min Rain = 0
KVA1 250321Z 28006KT 14/M09 A3017 RMK A01 T01351090  RH  020%=      5-min Rain = 0
KVA1 250322Z 28006KT 14/M09 A3017 RMK A01 T01351090  RH  020%=      5-min Rain = 0
KVA1 250323Z 26006KT 14/M09 A3017 RMK A01 T01351090  RH  020%=      5-min Rain = 0
KVA1 250324Z 26007KT 14/M09 A3017 RMK A01 T01351090  RH  020%=      5-min Rain = 0
KVA1 250325Z 26007KT 13/M09 A3017 RMK A01 T01341090  RH  020%=      5-min Rain = 0
KVA1 250326Z 25007KT 13/M09 A3017 RMK A01 T01341090  RH  020%=      5-min Rain = 0
KVA1 250327Z 25007KT 13/M09 A3017 RMK A01 T01341089  RH  020%=      5-min Rain = 0
KVA1 250328Z 25007KT 13/M09 A3017 RMK A01 T01341089  RH  020%=      5-min Rain = 0
KVA1 250329Z 27006KT 13/M09 A3017 RMK A01 T01341089  RH  020%=      5-min Rain = 0
KVA1 250330Z 26007KT 13/M09 A3017 RMK A01 T01331089  RH  020%=      5-min Rain = 0
KVA1 250331Z 26007KT 13/M09 A3017 RMK A01 T01331088  RH  021%=      5-min Rain = 0
KVA1 250332Z 26006KT 14/M09 A3017 RMK A01 T01351087  RH  020%=      5-min Rain = 0
KVA1 250333Z 26006KT 14/M09 A3017 RMK A01 T01371087  RH  020%=      5-min Rain = 0
KVA1 250334Z 25007KT 14/M09 A3017 RMK A01 T01381086  RH  020%=      5-min Rain = 0
KVA1 250335Z 25008KT 14/M09 A3017 RMK A01 T01401086  RH  020%=      5-min Rain = 0
KVA1 250336Z 25007KT 14/M09 A3017 RMK A01 T01421085  RH  020%=      5-min Rain = 0
KVA1 250337Z 25006KT 14/M09 A3017 RMK A01 T01431085  RH  020%=      5-min Rain = 0
KVA1 250338Z 26006KT 14/M09 A3017 RMK A01 T01441085  RH  020%=      5-min Rain = 0
KVA1 250339Z 25006KT 14/M09 A3017 RMK A01 T01441085  RH  020%=      5-min Rain = 0
KVA1 250340Z 25007KT 14/M09 A3017 RMK A01 T01441085  RH  020%=      5-min Rain = 0
KVA1 250341Z 25007KT 14/M09 A3017 RMK A01 T01431085  RH  020%=      5-min Rain = 0
KVA1 250342Z 25007KT 14/M09 A3018 RMK A01 T01431085  RH  020%=      5-min Rain = 0
KVA1 250343Z 25007KT 14/M09 A3018 RMK A01 T01431085  RH  020%=      5-min Rain = 0
KVA1 250344Z 25007KT 14/M09 A3018 RMK A01 T01421085  RH  020%=      5-min Rain = 0
KVA1 250345Z 25007KT 14/M09 A3018 RMK A01 T01421085  RH  020%=      5-min Rain = 0
KVA1 250346Z 25006KT 14/M08 A3018 RMK A01 T01411084  RH  020%=      5-min Rain = 0
KVA1 250347Z 25006KT 14/M09 A3018 RMK A01 T01411085  RH  020%=      5-min Rain = 0
KVA1 250348Z 25006KT 14/M08 A3018 RMK A01 T01411084  RH  020%=      5-min Rain = 0
KVA1 250349Z 24007KT 14/M08 A3018 RMK A01 T01411084  RH  020%=      5-min Rain = 0
KVA1 250350Z 24007KT 14/M09 A3018 RMK A01 T01401085  RH  020%=      5-min Rain = 0
KVA1 250351Z 24007KT 14/M09 A3018 RMK A01 T01391085  RH  020%=      5-min Rain = 0
KVA1 250352Z 24007KT 14/M08 A3018 RMK A01 T01391084  RH  020%=      5-min Rain = 0
KVA1 250353Z 24007KT 14/M08 A3018 RMK A01 T01391084  RH  021%=      5-min Rain = 0
KVA1 250354Z 24007KT 14/M08 A3018 RMK A01 T01391083  RH  021%=      5-min Rain = 0
KVA1 250355Z 24007KT 14/M08 A3018 RMK A01 T01391083  RH  021%=      5-min Rain = 0
KVA1 250356Z 24007KT 14/M08 A3018 RMK A01 T01391083  RH  021%=      5-min Rain = 0
KVA1 250357Z 24007KT 14/M08 A3018 RMK A01 T01381084  RH  021%=      5-min Rain = 0
KVA1 250358Z 24007KT 14/M08 A3018 RMK A01 T01391084  RH  021%=      5-min Rain = 0
KVA1 250359Z 24008KT 14/M08 A3018 RMK A01 T01391083  RH  021%=      5-min Rain = 0
KVA1 250400Z 25008KT 14/M08 A3018 RMK A01 T01391083  RH  021%=      5-min Rain = 0
KVA1 250401Z 25007KT 14/M08 A3018 RMK A01 T01391083  RH  021%=      5-min Rain = 0
KVA1 250402Z 25007KT 14/M08 A3018 RMK A01 T01391084  RH  021%=      5-min Rain = 0
KVA1 250403Z 25007KT 14/M08 A3018 RMK A01 T01381084  RH  021%=      5-min Rain = 0
KVA1 250404Z 25007KT 14/M08 A3018 RMK A01 T01381084  RH  021%=      5-min Rain = 0
KVA1 250405Z 26007KT 14/M08 A3018 RMK A01 T01371084  RH  021%=      5-min Rain = 0
KVA1 250406Z 26007KT 14/M08 A3018 RMK A01 T01371084  RH  021%=      5-min Rain = 0
KVA1 250407Z 27006KT 14/M08 A3018 RMK A01 T01371084  RH  021%=      5-min Rain = 0
KVA1 250408Z 27006KT 14/M09 A3018 RMK A01 T01361085  RH  021%=      5-min Rain = 0
KVA1 250409Z 26007KT 14/M09 A3018 RMK A01 T01351086  RH  021%=      5-min Rain = 0
KVA1 250410Z 27007KT 13/M09 A3018 RMK A01 T01341086  RH  021%=      5-min Rain = 0
KVA1 250411Z 27007KT 13/M09 A3018 RMK A01 T01341086  RH  021%=      5-min Rain = 0
KVA1 250412Z 26008KT 13/M09 A3018 RMK A01 T01341086  RH  021%=      5-min Rain = 0
KVA1 250413Z 27007KT 13/M09 A3018 RMK A01 T01341086  RH  021%=      5-min Rain = 0
KVA1 250414Z 26008KT 13/M09 A3018 RMK A01 T01341086  RH  021%=      5-min Rain = 0
KVA1 250415Z 27007KT 13/M09 A3018 RMK A01 T01341086  RH  021%=      5-min Rain = 0
KVA1 250416Z 27007KT 13/M09 A3018 RMK A01 T01341086  RH  021%=      5-min Rain = 0
KVA1 250417Z 27008KT 13/M09 A3018 RMK A01 T01341086  RH  021%=      5-min Rain = 0
KVA1 250418Z 27008KT 13/M09 A3018 RMK A01 T01341087  RH  021%=      5-min Rain = 0
KVA1 250419Z 27008KT 13/M09 A3018 RMK A01 T01331087  RH  021%=      5-min Rain = 0
KVA1 250420Z 27008KT 13/M09 A3018 RMK A01 T01331087  RH  021%=      5-min Rain = 0
KVA1 250421Z 27008KT 13/M09 A3018 RMK A01 T01321088  RH  021%=      5-min Rain = 0
KVA1 250422Z 27008KT 13/M09 A3019 RMK A01 T01321087  RH  021%=      5-min Rain = 0
KVA1 250423Z 27007KT 13/M09 A3019 RMK A01 T01321087  RH  021%=      5-min Rain = 0
KVA1 250424Z 27007KT 13/M09 A3019 RMK A01 T01321087  RH  021%=      5-min Rain = 0
KVA1 250425Z 27007KT 13/M09 A3019 RMK A01 T01321088  RH  021%=      5-min Rain = 0
KVA1 250426Z 28007KT 13/M09 A3019 RMK A01 T01321087  RH  021%=      5-min Rain = 0
KVA1 250427Z 28007KT 13/M09 A3019 RMK A01 T01311088  RH  021%=      5-min Rain = 0
KVA1 250428Z 27007KT 13/M09 A3019 RMK A01 T01321087  RH  021%=      5-min Rain = 0
KVA1 250429Z 28007KT 13/M09 A3019 RMK A01 T01321087  RH  021%=      5-min Rain = 0
KVA1 250430Z 27007KT 13/M09 A3019 RMK A01 T01321087  RH  021%=      5-min Rain = 0
KVA1 250431Z 27006KT 13/M09 A3019 RMK A01 T01331086  RH  021%=      5-min Rain = 0
KVA1 250432Z 27006KT 13/M09 A3019 RMK A01 T01331086  RH  021%=      5-min Rain = 0
KVA1 250433Z 26005KT 13/M09 A3019 RMK A01 T01331087  RH  021%=      5-min Rain = 0
KVA1 250434Z 26005KT 13/M09 A3019 RMK A01 T01341086  RH  021%=      5-min Rain = 0
KVA1 250435Z 26005KT 13/M09 A3019 RMK A01 T01331087  RH  021%=      5-min Rain = 0
KVA1 250436Z 26005KT 13/M09 A3019 RMK A01 T01331086  RH  021%=      5-min Rain = 0
KVA1 250437Z 26005KT 13/M09 A3019 RMK A01 T01321086  RH  021%=      5-min Rain = 0
KVA1 250438Z 26005KT 13/M09 A3019 RMK A01 T01321086  RH  021%=      5-min Rain = 0
KVA1 250439Z 26005KT 13/M09 A3019 RMK A01 T01311086  RH  021%=      5-min Rain = 0
KVA1 250440Z 27005KT 13/M09 A3019 RMK A01 T01301087  RH  021%=      5-min Rain = 0
KVA1 250441Z 27006KT 13/M09 A3019 RMK A01 T01291087  RH  021%=      5-min Rain = 0
KVA1 250442Z 27006KT 13/M09 A3019 RMK A01 T01281087  RH  021%=      5-min Rain = 0
KVA1 250443Z 27006KT 13/M09 A3019 RMK A01 T01281087  RH  021%=      5-min Rain = 0
KVA1 250444Z 27005KT 13/M09 A3019 RMK A01 T01271088  RH  022%=      5-min Rain = 0
KVA1 250445Z 27006KT 13/M09 A3019 RMK A01 T01261088  RH  022%=      5-min Rain = 0
KVA1 250446Z 27006KT 13/M09 A3019 RMK A01 T01251088  RH  022%=      5-min Rain = 0
KVA1 250447Z 27007KT 12/M09 A3019 RMK A01 T01241088  RH  022%=      5-min Rain = 0
KVA1 250448Z 27007KT 12/M09 A3019 RMK A01 T01221088  RH  022%=      5-min Rain = 0
KVA1 250449Z 27007KT 12/M09 A3019 RMK A01 T01211088  RH  022%=      5-min Rain = 0
KVA1 250450Z 26006KT 12/M09 A3019 RMK A01 T01211087  RH  022%=      5-min Rain = 0
KVA1 250451Z 27006KT 12/M09 A3019 RMK A01 T01211087  RH  023%=      5-min Rain = 0
KVA1 250452Z 27006KT 12/M09 A3019 RMK A01 T01211087  RH  023%=      5-min Rain = 0
KVA1 250453Z 27007KT 12/M09 A3019 RMK A01 T01211086  RH  023%=      5-min Rain = 0
KVA1 250454Z 27007KT 12/M09 A3019 RMK A01 T01211086  RH  023%=      5-min Rain = 0
KVA1 250455Z 27007KT 12/M09 A3019 RMK A01 T01211086  RH  023%=      5-min Rain = 0
KVA1 250456Z 27007KT 12/M09 A3019 RMK A01 T01221085  RH  023%=      5-min Rain = 0
KVA1 250457Z 27007KT 12/M09 A3019 RMK A01 T01221086  RH  023%=      5-min Rain = 0
KVA1 250458Z 27007KT 12/M09 A3019 RMK A01 T01221087  RH  022%=      5-min Rain = 0
KVA1 250459Z 27007KT 12/M09 A3019 RMK A01 T01211087  RH  022%=      5-min Rain = 0

Page generated in 0.1214 seconds.